<?xml version="1.0" encoding="UTF-8" standalone="no" ?>
<gpx xmlns="http://www.topografix.com/GPX/1/1" xmlns:xsi="http://www.w3.org/2001/XMLSchema-instance" xsi:schemaLocation="http://www.topografix.com/GPX/1/1 http://www.topografix.com/GPX/1/1/gpx.xsd" version="1.1" creator="VisuGPX - https://www.visugpx.com">
  <metadata>
    <name>Ténébra, Dipti, Néo, Etang du Roi</name>
    <desc><![CDATA[une Dipti en forme, qui prend un petit galop régulier qd sa mère avance trop vite au trot !
quelques bons dénivelés mais pas sur la longueur, des chemins encore boueux (route du four guerin)... étonnant à cette époque !
]]></desc>
  </metadata>
  <trk>
    <name><![CDATA[Untitled]]></name>
    <trkseg>
      <trkpt lat="48.70759" lon="1.75688">
        <ele>173.60000610352</ele>
        <time>2014-05-29T12:59:33.000Z</time>
      </trkpt>
      <trkpt lat="48.70745" lon="1.75683">
        <ele>174</ele>
        <time>2014-05-29T12:59:34.000Z</time>
      </trkpt>
      <trkpt lat="48.70703" lon="1.75677">
        <ele>174.80000305176</ele>
        <time>2014-05-29T12:59:38.000Z</time>
      </trkpt>
      <trkpt lat="48.70698" lon="1.7568">
        <ele>174.60000610352</ele>
        <time>2014-05-29T12:59:39.000Z</time>
      </trkpt>
      <trkpt lat="48.70688" lon="1.7569">
        <ele>174.60000610352</ele>
        <time>2014-05-29T12:59:48.000Z</time>
      </trkpt>
      <trkpt lat="48.7069" lon="1.75685">
        <ele>174.60000610352</ele>
        <time>2014-05-29T12:59:58.000Z</time>
      </trkpt>
      <trkpt lat="48.70688" lon="1.75686">
        <ele>174.60000610352</ele>
        <time>2014-05-29T13:00:04.000Z</time>
      </trkpt>
      <trkpt lat="48.70691" lon="1.75685">
        <ele>174.60000610352</ele>
        <time>2014-05-29T13:00:10.000Z</time>
      </trkpt>
      <trkpt lat="48.70692" lon="1.75685">
        <ele>174.60000610352</ele>
        <time>2014-05-29T13:00:12.000Z</time>
      </trkpt>
      <trkpt lat="48.70684" lon="1.75688">
        <ele>175</ele>
        <time>2014-05-29T13:00:19.000Z</time>
      </trkpt>
      <trkpt lat="48.70682" lon="1.75684">
        <ele>175.19999694824</ele>
        <time>2014-05-29T13:00:23.000Z</time>
      </trkpt>
      <trkpt lat="48.70682" lon="1.7568">
        <ele>175.19999694824</ele>
        <time>2014-05-29T13:00:28.000Z</time>
      </trkpt>
      <trkpt lat="48.70674" lon="1.75677">
        <ele>176.39999389648</ele>
        <time>2014-05-29T13:00:34.000Z</time>
      </trkpt>
      <trkpt lat="48.70667" lon="1.75675">
        <ele>177.19999694824</ele>
        <time>2014-05-29T13:00:38.000Z</time>
      </trkpt>
      <trkpt lat="48.70651" lon="1.7568">
        <ele>179</ele>
        <time>2014-05-29T13:00:52.000Z</time>
      </trkpt>
      <trkpt lat="48.70649" lon="1.75682">
        <ele>179.19999694824</ele>
        <time>2014-05-29T13:00:56.000Z</time>
      </trkpt>
      <trkpt lat="48.70648" lon="1.75685">
        <ele>179.19999694824</ele>
        <time>2014-05-29T13:01:02.000Z</time>
      </trkpt>
      <trkpt lat="48.70651" lon="1.75682">
        <ele>179</ele>
        <time>2014-05-29T13:01:19.000Z</time>
      </trkpt>
      <trkpt lat="48.70652" lon="1.75681">
        <ele>178.80000305176</ele>
        <time>2014-05-29T13:01:21.000Z</time>
      </trkpt>
      <trkpt lat="48.70651" lon="1.75679">
        <ele>179</ele>
        <time>2014-05-29T13:01:27.000Z</time>
      </trkpt>
      <trkpt lat="48.70637" lon="1.75672">
        <ele>180.80000305176</ele>
        <time>2014-05-29T13:01:39.000Z</time>
      </trkpt>
      <trkpt lat="48.70638" lon="1.75672">
        <ele>180.60000610352</ele>
        <time>2014-05-29T13:01:41.000Z</time>
      </trkpt>
      <trkpt lat="48.70636" lon="1.7567">
        <ele>181</ele>
        <time>2014-05-29T13:01:46.000Z</time>
      </trkpt>
      <trkpt lat="48.70642" lon="1.75672">
        <ele>180.19999694824</ele>
        <time>2014-05-29T13:02:00.000Z</time>
      </trkpt>
      <trkpt lat="48.70643" lon="1.75672">
        <ele>180</ele>
        <time>2014-05-29T13:02:01.000Z</time>
      </trkpt>
      <trkpt lat="48.7064" lon="1.75669">
        <ele>180.39999389648</ele>
        <time>2014-05-29T13:02:06.000Z</time>
      </trkpt>
      <trkpt lat="48.70635" lon="1.75661">
        <ele>181.19999694824</ele>
        <time>2014-05-29T13:02:18.000Z</time>
      </trkpt>
      <trkpt lat="48.70634" lon="1.75659">
        <ele>181.19999694824</ele>
        <time>2014-05-29T13:02:21.000Z</time>
      </trkpt>
      <trkpt lat="48.70636" lon="1.75658">
        <ele>181</ele>
        <time>2014-05-29T13:02:33.000Z</time>
      </trkpt>
      <trkpt lat="48.70631" lon="1.75652">
        <ele>181.60000610352</ele>
        <time>2014-05-29T13:02:38.000Z</time>
      </trkpt>
      <trkpt lat="48.70625" lon="1.75648">
        <ele>182.19999694824</ele>
        <time>2014-05-29T13:02:43.000Z</time>
      </trkpt>
      <trkpt lat="48.70621" lon="1.7564">
        <ele>182.60000610352</ele>
        <time>2014-05-29T13:02:49.000Z</time>
      </trkpt>
      <trkpt lat="48.7062" lon="1.75635">
        <ele>182.60000610352</ele>
        <time>2014-05-29T13:02:53.000Z</time>
      </trkpt>
      <trkpt lat="48.70613" lon="1.75631">
        <ele>183.39999389648</ele>
        <time>2014-05-29T13:02:58.000Z</time>
      </trkpt>
      <trkpt lat="48.70609" lon="1.75624">
        <ele>183.60000610352</ele>
        <time>2014-05-29T13:03:03.000Z</time>
      </trkpt>
      <trkpt lat="48.70607" lon="1.75621">
        <ele>183.80000305176</ele>
        <time>2014-05-29T13:03:06.000Z</time>
      </trkpt>
      <trkpt lat="48.706" lon="1.75609">
        <ele>184</ele>
        <time>2014-05-29T13:03:14.000Z</time>
      </trkpt>
      <trkpt lat="48.70595" lon="1.75601">
        <ele>184</ele>
        <time>2014-05-29T13:03:19.000Z</time>
      </trkpt>
      <trkpt lat="48.70586" lon="1.75594">
        <ele>184</ele>
        <time>2014-05-29T13:03:25.000Z</time>
      </trkpt>
      <trkpt lat="48.70579" lon="1.75581">
        <ele>183.80000305176</ele>
        <time>2014-05-29T13:03:33.000Z</time>
      </trkpt>
      <trkpt lat="48.70573" lon="1.75575">
        <ele>183.80000305176</ele>
        <time>2014-05-29T13:03:39.000Z</time>
      </trkpt>
      <trkpt lat="48.7057" lon="1.75567">
        <ele>183.60000610352</ele>
        <time>2014-05-29T13:03:44.000Z</time>
      </trkpt>
      <trkpt lat="48.70563" lon="1.75563">
        <ele>183.60000610352</ele>
        <time>2014-05-29T13:03:48.000Z</time>
      </trkpt>
      <trkpt lat="48.70555" lon="1.7556">
        <ele>183.60000610352</ele>
        <time>2014-05-29T13:03:54.000Z</time>
      </trkpt>
      <trkpt lat="48.70549" lon="1.75555">
        <ele>183.60000610352</ele>
        <time>2014-05-29T13:04:00.000Z</time>
      </trkpt>
      <trkpt lat="48.70544" lon="1.75552">
        <ele>183.60000610352</ele>
        <time>2014-05-29T13:04:04.000Z</time>
      </trkpt>
      <trkpt lat="48.7054" lon="1.75547">
        <ele>183.39999389648</ele>
        <time>2014-05-29T13:04:09.000Z</time>
      </trkpt>
      <trkpt lat="48.70536" lon="1.7554">
        <ele>183.19999694824</ele>
        <time>2014-05-29T13:04:14.000Z</time>
      </trkpt>
      <trkpt lat="48.70533" lon="1.75535">
        <ele>183</ele>
        <time>2014-05-29T13:04:17.000Z</time>
      </trkpt>
      <trkpt lat="48.70528" lon="1.75526">
        <ele>182.60000610352</ele>
        <time>2014-05-29T13:04:23.000Z</time>
      </trkpt>
      <trkpt lat="48.70521" lon="1.75518">
        <ele>182.39999389648</ele>
        <time>2014-05-29T13:04:29.000Z</time>
      </trkpt>
      <trkpt lat="48.7052" lon="1.75517">
        <ele>182.39999389648</ele>
        <time>2014-05-29T13:04:30.000Z</time>
      </trkpt>
      <trkpt lat="48.70516" lon="1.7551">
        <ele>182.19999694824</ele>
        <time>2014-05-29T13:04:35.000Z</time>
      </trkpt>
      <trkpt lat="48.70507" lon="1.75505">
        <ele>182.39999389648</ele>
        <time>2014-05-29T13:04:42.000Z</time>
      </trkpt>
      <trkpt lat="48.70493" lon="1.755">
        <ele>182.60000610352</ele>
        <time>2014-05-29T13:04:49.000Z</time>
      </trkpt>
      <trkpt lat="48.70487" lon="1.75492">
        <ele>182.39999389648</ele>
        <time>2014-05-29T13:04:55.000Z</time>
      </trkpt>
      <trkpt lat="48.70482" lon="1.75485">
        <ele>182.39999389648</ele>
        <time>2014-05-29T13:05:02.000Z</time>
      </trkpt>
      <trkpt lat="48.7048" lon="1.7548">
        <ele>182.19999694824</ele>
        <time>2014-05-29T13:05:05.000Z</time>
      </trkpt>
      <trkpt lat="48.70475" lon="1.75476">
        <ele>182.39999389648</ele>
        <time>2014-05-29T13:05:09.000Z</time>
      </trkpt>
      <trkpt lat="48.70472" lon="1.75472">
        <ele>182.39999389648</ele>
        <time>2014-05-29T13:05:13.000Z</time>
      </trkpt>
      <trkpt lat="48.70467" lon="1.75467">
        <ele>182.39999389648</ele>
        <time>2014-05-29T13:05:18.000Z</time>
      </trkpt>
      <trkpt lat="48.70465" lon="1.75462">
        <ele>182.39999389648</ele>
        <time>2014-05-29T13:05:23.000Z</time>
      </trkpt>
      <trkpt lat="48.7046" lon="1.75459">
        <ele>182.39999389648</ele>
        <time>2014-05-29T13:05:27.000Z</time>
      </trkpt>
      <trkpt lat="48.70458" lon="1.75453">
        <ele>182.39999389648</ele>
        <time>2014-05-29T13:05:31.000Z</time>
      </trkpt>
      <trkpt lat="48.70445" lon="1.75449">
        <ele>182.80000305176</ele>
        <time>2014-05-29T13:05:37.000Z</time>
      </trkpt>
      <trkpt lat="48.70442" lon="1.75446">
        <ele>182.80000305176</ele>
        <time>2014-05-29T13:05:42.000Z</time>
      </trkpt>
      <trkpt lat="48.70439" lon="1.75447">
        <ele>183</ele>
        <time>2014-05-29T13:05:49.000Z</time>
      </trkpt>
      <trkpt lat="48.70442" lon="1.75439">
        <ele>182.60000610352</ele>
        <time>2014-05-29T13:06:07.000Z</time>
      </trkpt>
      <trkpt lat="48.70443" lon="1.75437">
        <ele>182.60000610352</ele>
        <time>2014-05-29T13:06:14.000Z</time>
      </trkpt>
      <trkpt lat="48.7044" lon="1.75437">
        <ele>182.60000610352</ele>
        <time>2014-05-29T13:06:28.000Z</time>
      </trkpt>
      <trkpt lat="48.7044" lon="1.75434">
        <ele>182.60000610352</ele>
        <time>2014-05-29T13:06:31.000Z</time>
      </trkpt>
      <trkpt lat="48.70443" lon="1.75431">
        <ele>182.39999389648</ele>
        <time>2014-05-29T13:06:33.000Z</time>
      </trkpt>
      <trkpt lat="48.70438" lon="1.75438">
        <ele>182.80000305176</ele>
        <time>2014-05-29T13:06:47.000Z</time>
      </trkpt>
      <trkpt lat="48.70435" lon="1.75441">
        <ele>182.80000305176</ele>
        <time>2014-05-29T13:07:00.000Z</time>
      </trkpt>
      <trkpt lat="48.70438" lon="1.75443">
        <ele>182.80000305176</ele>
        <time>2014-05-29T13:07:49.000Z</time>
      </trkpt>
      <trkpt lat="48.70433" lon="1.75441">
        <ele>182.80000305176</ele>
        <time>2014-05-29T13:07:51.000Z</time>
      </trkpt>
      <trkpt lat="48.70429" lon="1.75435">
        <ele>182.60000610352</ele>
        <time>2014-05-29T13:07:56.000Z</time>
      </trkpt>
      <trkpt lat="48.70413" lon="1.75427">
        <ele>182.19999694824</ele>
        <time>2014-05-29T13:08:08.000Z</time>
      </trkpt>
      <trkpt lat="48.7041" lon="1.75421">
        <ele>182</ele>
        <time>2014-05-29T13:08:13.000Z</time>
      </trkpt>
      <trkpt lat="48.70404" lon="1.75419">
        <ele>182</ele>
        <time>2014-05-29T13:08:19.000Z</time>
      </trkpt>
      <trkpt lat="48.70398" lon="1.75416">
        <ele>181.80000305176</ele>
        <time>2014-05-29T13:08:24.000Z</time>
      </trkpt>
      <trkpt lat="48.70396" lon="1.75412">
        <ele>181.60000610352</ele>
        <time>2014-05-29T13:08:27.000Z</time>
      </trkpt>
      <trkpt lat="48.7039" lon="1.75408">
        <ele>181.60000610352</ele>
        <time>2014-05-29T13:08:33.000Z</time>
      </trkpt>
      <trkpt lat="48.70389" lon="1.75407">
        <ele>181.60000610352</ele>
        <time>2014-05-29T13:08:35.000Z</time>
      </trkpt>
      <trkpt lat="48.70381" lon="1.75407">
        <ele>181.39999389648</ele>
        <time>2014-05-29T13:08:45.000Z</time>
      </trkpt>
      <trkpt lat="48.70375" lon="1.75401">
        <ele>181.19999694824</ele>
        <time>2014-05-29T13:08:50.000Z</time>
      </trkpt>
      <trkpt lat="48.70362" lon="1.75392">
        <ele>181.19999694824</ele>
        <time>2014-05-29T13:09:00.000Z</time>
      </trkpt>
      <trkpt lat="48.70358" lon="1.75386">
        <ele>181</ele>
        <time>2014-05-29T13:09:07.000Z</time>
      </trkpt>
      <trkpt lat="48.70357" lon="1.75384">
        <ele>181</ele>
        <time>2014-05-29T13:09:09.000Z</time>
      </trkpt>
      <trkpt lat="48.70352" lon="1.75379">
        <ele>181</ele>
        <time>2014-05-29T13:09:14.000Z</time>
      </trkpt>
      <trkpt lat="48.70344" lon="1.75371">
        <ele>180.80000305176</ele>
        <time>2014-05-29T13:09:25.000Z</time>
      </trkpt>
      <trkpt lat="48.70343" lon="1.75369">
        <ele>180.80000305176</ele>
        <time>2014-05-29T13:09:26.000Z</time>
      </trkpt>
      <trkpt lat="48.70338" lon="1.75361">
        <ele>180.60000610352</ele>
        <time>2014-05-29T13:09:33.000Z</time>
      </trkpt>
      <trkpt lat="48.70331" lon="1.75358">
        <ele>180.39999389648</ele>
        <time>2014-05-29T13:09:39.000Z</time>
      </trkpt>
      <trkpt lat="48.70331" lon="1.75358">
        <ele>180.39999389648</ele>
        <time>2014-05-29T13:09:40.000Z</time>
      </trkpt>
      <trkpt lat="48.70328" lon="1.75355">
        <ele>180.39999389648</ele>
        <time>2014-05-29T13:10:06.000Z</time>
      </trkpt>
      <trkpt lat="48.70321" lon="1.75353">
        <ele>180.19999694824</ele>
        <time>2014-05-29T13:10:11.000Z</time>
      </trkpt>
      <trkpt lat="48.70317" lon="1.75352">
        <ele>180.19999694824</ele>
        <time>2014-05-29T13:10:13.000Z</time>
      </trkpt>
      <trkpt lat="48.70313" lon="1.75349">
        <ele>180</ele>
        <time>2014-05-29T13:10:20.000Z</time>
      </trkpt>
      <trkpt lat="48.70308" lon="1.7533">
        <ele>180</ele>
        <time>2014-05-29T13:10:45.000Z</time>
      </trkpt>
      <trkpt lat="48.70305" lon="1.75327">
        <ele>179.80000305176</ele>
        <time>2014-05-29T13:10:50.000Z</time>
      </trkpt>
      <trkpt lat="48.70303" lon="1.75321">
        <ele>179.80000305176</ele>
        <time>2014-05-29T13:12:01.000Z</time>
      </trkpt>
      <trkpt lat="48.70298" lon="1.75312">
        <ele>179.80000305176</ele>
        <time>2014-05-29T13:12:13.000Z</time>
      </trkpt>
      <trkpt lat="48.70299" lon="1.75305">
        <ele>179.80000305176</ele>
        <time>2014-05-29T13:13:56.000Z</time>
      </trkpt>
      <trkpt lat="48.70297" lon="1.75304">
        <ele>179.80000305176</ele>
        <time>2014-05-29T13:13:57.000Z</time>
      </trkpt>
      <trkpt lat="48.70292" lon="1.75297">
        <ele>179.80000305176</ele>
        <time>2014-05-29T13:14:02.000Z</time>
      </trkpt>
      <trkpt lat="48.70288" lon="1.75295">
        <ele>179.80000305176</ele>
        <time>2014-05-29T13:14:08.000Z</time>
      </trkpt>
      <trkpt lat="48.70282" lon="1.75291">
        <ele>179.60000610352</ele>
        <time>2014-05-29T13:14:20.000Z</time>
      </trkpt>
      <trkpt lat="48.70286" lon="1.75285">
        <ele>179.80000305176</ele>
        <time>2014-05-29T13:14:31.000Z</time>
      </trkpt>
      <trkpt lat="48.70287" lon="1.75283">
        <ele>179.80000305176</ele>
        <time>2014-05-29T13:14:35.000Z</time>
      </trkpt>
      <trkpt lat="48.70279" lon="1.75291">
        <ele>179.60000610352</ele>
        <time>2014-05-29T13:15:08.000Z</time>
      </trkpt>
      <trkpt lat="48.70275" lon="1.75289">
        <ele>179.60000610352</ele>
        <time>2014-05-29T13:15:11.000Z</time>
      </trkpt>
      <trkpt lat="48.7027" lon="1.75281">
        <ele>179.39999389648</ele>
        <time>2014-05-29T13:15:19.000Z</time>
      </trkpt>
      <trkpt lat="48.70268" lon="1.75279">
        <ele>179.39999389648</ele>
        <time>2014-05-29T13:15:21.000Z</time>
      </trkpt>
      <trkpt lat="48.70258" lon="1.7527">
        <ele>179</ele>
        <time>2014-05-29T13:15:28.000Z</time>
      </trkpt>
      <trkpt lat="48.70256" lon="1.75268">
        <ele>179</ele>
        <time>2014-05-29T13:15:31.000Z</time>
      </trkpt>
      <trkpt lat="48.70248" lon="1.75261">
        <ele>178.60000610352</ele>
        <time>2014-05-29T13:15:37.000Z</time>
      </trkpt>
      <trkpt lat="48.70245" lon="1.75258">
        <ele>178.60000610352</ele>
        <time>2014-05-29T13:15:40.000Z</time>
      </trkpt>
      <trkpt lat="48.70238" lon="1.7525">
        <ele>178.39999389648</ele>
        <time>2014-05-29T13:15:47.000Z</time>
      </trkpt>
      <trkpt lat="48.70229" lon="1.75245">
        <ele>178</ele>
        <time>2014-05-29T13:15:52.000Z</time>
      </trkpt>
      <trkpt lat="48.70223" lon="1.75242">
        <ele>177.60000610352</ele>
        <time>2014-05-29T13:15:58.000Z</time>
      </trkpt>
      <trkpt lat="48.70215" lon="1.75241">
        <ele>177.39999389648</ele>
        <time>2014-05-29T13:16:03.000Z</time>
      </trkpt>
      <trkpt lat="48.70205" lon="1.75242">
        <ele>176.80000305176</ele>
        <time>2014-05-29T13:16:09.000Z</time>
      </trkpt>
      <trkpt lat="48.70198" lon="1.75246">
        <ele>176.39999389648</ele>
        <time>2014-05-29T13:16:15.000Z</time>
      </trkpt>
      <trkpt lat="48.7019" lon="1.75251">
        <ele>176.19999694824</ele>
        <time>2014-05-29T13:16:21.000Z</time>
      </trkpt>
      <trkpt lat="48.70183" lon="1.75252">
        <ele>176</ele>
        <time>2014-05-29T13:16:27.000Z</time>
      </trkpt>
      <trkpt lat="48.70175" lon="1.75255">
        <ele>175.80000305176</ele>
        <time>2014-05-29T13:16:33.000Z</time>
      </trkpt>
      <trkpt lat="48.70165" lon="1.7526">
        <ele>175.80000305176</ele>
        <time>2014-05-29T13:16:41.000Z</time>
      </trkpt>
      <trkpt lat="48.70163" lon="1.7526">
        <ele>175.80000305176</ele>
        <time>2014-05-29T13:16:42.000Z</time>
      </trkpt>
      <trkpt lat="48.70158" lon="1.75259">
        <ele>175.60000610352</ele>
        <time>2014-05-29T13:16:47.000Z</time>
      </trkpt>
      <trkpt lat="48.70155" lon="1.75261">
        <ele>175.60000610352</ele>
        <time>2014-05-29T13:16:50.000Z</time>
      </trkpt>
      <trkpt lat="48.7015" lon="1.75267">
        <ele>175.60000610352</ele>
        <time>2014-05-29T13:16:56.000Z</time>
      </trkpt>
      <trkpt lat="48.70149" lon="1.75268">
        <ele>175.60000610352</ele>
        <time>2014-05-29T13:16:57.000Z</time>
      </trkpt>
      <trkpt lat="48.70145" lon="1.75272">
        <ele>175.60000610352</ele>
        <time>2014-05-29T13:17:00.000Z</time>
      </trkpt>
      <trkpt lat="48.70135" lon="1.75278">
        <ele>175.19999694824</ele>
        <time>2014-05-29T13:17:07.000Z</time>
      </trkpt>
      <trkpt lat="48.70128" lon="1.75282">
        <ele>174.80000305176</ele>
        <time>2014-05-29T13:17:13.000Z</time>
      </trkpt>
      <trkpt lat="48.70119" lon="1.75288">
        <ele>174.39999389648</ele>
        <time>2014-05-29T13:17:20.000Z</time>
      </trkpt>
      <trkpt lat="48.70118" lon="1.75289">
        <ele>174.19999694824</ele>
        <time>2014-05-29T13:17:24.000Z</time>
      </trkpt>
      <trkpt lat="48.70105" lon="1.75296">
        <ele>173.60000610352</ele>
        <time>2014-05-29T13:17:43.000Z</time>
      </trkpt>
      <trkpt lat="48.70097" lon="1.753">
        <ele>173.39999389648</ele>
        <time>2014-05-29T13:17:48.000Z</time>
      </trkpt>
      <trkpt lat="48.70091" lon="1.75304">
        <ele>173.19999694824</ele>
        <time>2014-05-29T13:17:52.000Z</time>
      </trkpt>
      <trkpt lat="48.70079" lon="1.75308">
        <ele>173</ele>
        <time>2014-05-29T13:17:59.000Z</time>
      </trkpt>
      <trkpt lat="48.70071" lon="1.75311">
        <ele>172.80000305176</ele>
        <time>2014-05-29T13:18:03.000Z</time>
      </trkpt>
      <trkpt lat="48.7006" lon="1.75314">
        <ele>172.60000610352</ele>
        <time>2014-05-29T13:18:10.000Z</time>
      </trkpt>
      <trkpt lat="48.70051" lon="1.75318">
        <ele>172.39999389648</ele>
        <time>2014-05-29T13:18:17.000Z</time>
      </trkpt>
      <trkpt lat="48.7005" lon="1.75319">
        <ele>172.39999389648</ele>
        <time>2014-05-29T13:18:18.000Z</time>
      </trkpt>
      <trkpt lat="48.70034" lon="1.75325">
        <ele>171.80000305176</ele>
        <time>2014-05-29T13:18:28.000Z</time>
      </trkpt>
      <trkpt lat="48.70026" lon="1.75328">
        <ele>171.60000610352</ele>
        <time>2014-05-29T13:18:33.000Z</time>
      </trkpt>
      <trkpt lat="48.70019" lon="1.75332">
        <ele>171.39999389648</ele>
        <time>2014-05-29T13:18:41.000Z</time>
      </trkpt>
      <trkpt lat="48.70014" lon="1.75334">
        <ele>171.39999389648</ele>
        <time>2014-05-29T13:18:44.000Z</time>
      </trkpt>
      <trkpt lat="48.70004" lon="1.75341">
        <ele>171.19999694824</ele>
        <time>2014-05-29T13:18:51.000Z</time>
      </trkpt>
      <trkpt lat="48.69996" lon="1.75346">
        <ele>171</ele>
        <time>2014-05-29T13:18:58.000Z</time>
      </trkpt>
      <trkpt lat="48.69988" lon="1.75346">
        <ele>171.19999694824</ele>
        <time>2014-05-29T13:19:05.000Z</time>
      </trkpt>
      <trkpt lat="48.69987" lon="1.75346">
        <ele>171.19999694824</ele>
        <time>2014-05-29T13:19:06.000Z</time>
      </trkpt>
      <trkpt lat="48.69978" lon="1.75349">
        <ele>171.19999694824</ele>
        <time>2014-05-29T13:19:12.000Z</time>
      </trkpt>
      <trkpt lat="48.69974" lon="1.75353">
        <ele>171</ele>
        <time>2014-05-29T13:19:17.000Z</time>
      </trkpt>
      <trkpt lat="48.69966" lon="1.75357">
        <ele>171.19999694824</ele>
        <time>2014-05-29T13:19:23.000Z</time>
      </trkpt>
      <trkpt lat="48.69961" lon="1.75361">
        <ele>171.39999389648</ele>
        <time>2014-05-29T13:19:29.000Z</time>
      </trkpt>
      <trkpt lat="48.69952" lon="1.75366">
        <ele>171.80000305176</ele>
        <time>2014-05-29T13:19:36.000Z</time>
      </trkpt>
      <trkpt lat="48.69942" lon="1.75368">
        <ele>172.19999694824</ele>
        <time>2014-05-29T13:19:43.000Z</time>
      </trkpt>
      <trkpt lat="48.69934" lon="1.7537">
        <ele>172.39999389648</ele>
        <time>2014-05-29T13:19:49.000Z</time>
      </trkpt>
      <trkpt lat="48.69925" lon="1.75375">
        <ele>172.19999694824</ele>
        <time>2014-05-29T13:19:56.000Z</time>
      </trkpt>
      <trkpt lat="48.69918" lon="1.7538">
        <ele>172</ele>
        <time>2014-05-29T13:20:01.000Z</time>
      </trkpt>
      <trkpt lat="48.69912" lon="1.75382">
        <ele>172</ele>
        <time>2014-05-29T13:20:07.000Z</time>
      </trkpt>
      <trkpt lat="48.69902" lon="1.75386">
        <ele>171.60000610352</ele>
        <time>2014-05-29T13:20:16.000Z</time>
      </trkpt>
      <trkpt lat="48.6989" lon="1.75392">
        <ele>171.19999694824</ele>
        <time>2014-05-29T13:20:24.000Z</time>
      </trkpt>
      <trkpt lat="48.69884" lon="1.75395">
        <ele>171</ele>
        <time>2014-05-29T13:20:30.000Z</time>
      </trkpt>
      <trkpt lat="48.69874" lon="1.75399">
        <ele>170.60000610352</ele>
        <time>2014-05-29T13:20:36.000Z</time>
      </trkpt>
      <trkpt lat="48.69867" lon="1.75404">
        <ele>170.39999389648</ele>
        <time>2014-05-29T13:20:42.000Z</time>
      </trkpt>
      <trkpt lat="48.69859" lon="1.75408">
        <ele>170</ele>
        <time>2014-05-29T13:20:48.000Z</time>
      </trkpt>
      <trkpt lat="48.69852" lon="1.75412">
        <ele>169.60000610352</ele>
        <time>2014-05-29T13:20:53.000Z</time>
      </trkpt>
      <trkpt lat="48.69844" lon="1.75415">
        <ele>169.19999694824</ele>
        <time>2014-05-29T13:21:00.000Z</time>
      </trkpt>
      <trkpt lat="48.69842" lon="1.75415">
        <ele>169.19999694824</ele>
        <time>2014-05-29T13:21:02.000Z</time>
      </trkpt>
      <trkpt lat="48.69836" lon="1.75416">
        <ele>169</ele>
        <time>2014-05-29T13:21:08.000Z</time>
      </trkpt>
      <trkpt lat="48.6983" lon="1.75419">
        <ele>168.60000610352</ele>
        <time>2014-05-29T13:21:12.000Z</time>
      </trkpt>
      <trkpt lat="48.69826" lon="1.75421">
        <ele>168.39999389648</ele>
        <time>2014-05-29T13:21:16.000Z</time>
      </trkpt>
      <trkpt lat="48.6982" lon="1.75423">
        <ele>168.19999694824</ele>
        <time>2014-05-29T13:21:22.000Z</time>
      </trkpt>
      <trkpt lat="48.69818" lon="1.75424">
        <ele>168</ele>
        <time>2014-05-29T13:21:25.000Z</time>
      </trkpt>
      <trkpt lat="48.69813" lon="1.75425">
        <ele>167.80000305176</ele>
        <time>2014-05-29T13:21:29.000Z</time>
      </trkpt>
      <trkpt lat="48.69806" lon="1.7543">
        <ele>167.39999389648</ele>
        <time>2014-05-29T13:21:35.000Z</time>
      </trkpt>
      <trkpt lat="48.698" lon="1.75435">
        <ele>167</ele>
        <time>2014-05-29T13:21:39.000Z</time>
      </trkpt>
      <trkpt lat="48.69787" lon="1.75442">
        <ele>166</ele>
        <time>2014-05-29T13:21:47.000Z</time>
      </trkpt>
      <trkpt lat="48.69775" lon="1.75446">
        <ele>165.19999694824</ele>
        <time>2014-05-29T13:21:55.000Z</time>
      </trkpt>
      <trkpt lat="48.69767" lon="1.75452">
        <ele>164.60000610352</ele>
        <time>2014-05-29T13:22:01.000Z</time>
      </trkpt>
      <trkpt lat="48.69761" lon="1.75454">
        <ele>164.19999694824</ele>
        <time>2014-05-29T13:22:05.000Z</time>
      </trkpt>
      <trkpt lat="48.69752" lon="1.75459">
        <ele>163.60000610352</ele>
        <time>2014-05-29T13:22:12.000Z</time>
      </trkpt>
      <trkpt lat="48.69744" lon="1.75464">
        <ele>162.80000305176</ele>
        <time>2014-05-29T13:22:20.000Z</time>
      </trkpt>
      <trkpt lat="48.69735" lon="1.7547">
        <ele>162.19999694824</ele>
        <time>2014-05-29T13:22:27.000Z</time>
      </trkpt>
      <trkpt lat="48.69725" lon="1.75476">
        <ele>161.39999389648</ele>
        <time>2014-05-29T13:22:35.000Z</time>
      </trkpt>
      <trkpt lat="48.69716" lon="1.7548">
        <ele>160.80000305176</ele>
        <time>2014-05-29T13:22:42.000Z</time>
      </trkpt>
      <trkpt lat="48.69709" lon="1.75482">
        <ele>160.39999389648</ele>
        <time>2014-05-29T13:22:48.000Z</time>
      </trkpt>
      <trkpt lat="48.697" lon="1.75486">
        <ele>159.60000610352</ele>
        <time>2014-05-29T13:22:54.000Z</time>
      </trkpt>
      <trkpt lat="48.69687" lon="1.75492">
        <ele>158.80000305176</ele>
        <time>2014-05-29T13:23:04.000Z</time>
      </trkpt>
      <trkpt lat="48.69674" lon="1.755">
        <ele>158.19999694824</ele>
        <time>2014-05-29T13:23:14.000Z</time>
      </trkpt>
      <trkpt lat="48.69664" lon="1.75504">
        <ele>157.80000305176</ele>
        <time>2014-05-29T13:23:23.000Z</time>
      </trkpt>
      <trkpt lat="48.69657" lon="1.75507">
        <ele>157.39999389648</ele>
        <time>2014-05-29T13:23:29.000Z</time>
      </trkpt>
      <trkpt lat="48.69654" lon="1.7551">
        <ele>157.19999694824</ele>
        <time>2014-05-29T13:23:33.000Z</time>
      </trkpt>
      <trkpt lat="48.69643" lon="1.75515">
        <ele>156.80000305176</ele>
        <time>2014-05-29T13:23:41.000Z</time>
      </trkpt>
      <trkpt lat="48.69638" lon="1.75517">
        <ele>156.60000610352</ele>
        <time>2014-05-29T13:23:45.000Z</time>
      </trkpt>
      <trkpt lat="48.69632" lon="1.7552">
        <ele>156.39999389648</ele>
        <time>2014-05-29T13:23:50.000Z</time>
      </trkpt>
      <trkpt lat="48.69619" lon="1.75525">
        <ele>156.19999694824</ele>
        <time>2014-05-29T13:24:00.000Z</time>
      </trkpt>
      <trkpt lat="48.69608" lon="1.75532">
        <ele>156</ele>
        <time>2014-05-29T13:24:09.000Z</time>
      </trkpt>
      <trkpt lat="48.69597" lon="1.75537">
        <ele>155.80000305176</ele>
        <time>2014-05-29T13:24:16.000Z</time>
      </trkpt>
      <trkpt lat="48.6959" lon="1.7554">
        <ele>155.60000610352</ele>
        <time>2014-05-29T13:24:21.000Z</time>
      </trkpt>
      <trkpt lat="48.69581" lon="1.75543">
        <ele>155.39999389648</ele>
        <time>2014-05-29T13:24:28.000Z</time>
      </trkpt>
      <trkpt lat="48.69572" lon="1.75547">
        <ele>155.39999389648</ele>
        <time>2014-05-29T13:24:35.000Z</time>
      </trkpt>
      <trkpt lat="48.69569" lon="1.75548">
        <ele>155.39999389648</ele>
        <time>2014-05-29T13:24:41.000Z</time>
      </trkpt>
      <trkpt lat="48.69566" lon="1.75541">
        <ele>155.19999694824</ele>
        <time>2014-05-29T13:24:51.000Z</time>
      </trkpt>
      <trkpt lat="48.6956" lon="1.75518">
        <ele>155</ele>
        <time>2014-05-29T13:25:00.000Z</time>
      </trkpt>
      <trkpt lat="48.6956" lon="1.75516">
        <ele>155</ele>
        <time>2014-05-29T13:25:01.000Z</time>
      </trkpt>
      <trkpt lat="48.69556" lon="1.755">
        <ele>154.80000305176</ele>
        <time>2014-05-29T13:25:08.000Z</time>
      </trkpt>
      <trkpt lat="48.69553" lon="1.75491">
        <ele>154.80000305176</ele>
        <time>2014-05-29T13:25:12.000Z</time>
      </trkpt>
      <trkpt lat="48.69549" lon="1.75474">
        <ele>154.80000305176</ele>
        <time>2014-05-29T13:25:20.000Z</time>
      </trkpt>
      <trkpt lat="48.69545" lon="1.75459">
        <ele>154.60000610352</ele>
        <time>2014-05-29T13:25:27.000Z</time>
      </trkpt>
      <trkpt lat="48.69542" lon="1.75447">
        <ele>154.60000610352</ele>
        <time>2014-05-29T13:25:33.000Z</time>
      </trkpt>
      <trkpt lat="48.69535" lon="1.75425">
        <ele>154.39999389648</ele>
        <time>2014-05-29T13:25:43.000Z</time>
      </trkpt>
      <trkpt lat="48.69532" lon="1.75414">
        <ele>154.39999389648</ele>
        <time>2014-05-29T13:25:48.000Z</time>
      </trkpt>
      <trkpt lat="48.69529" lon="1.75406">
        <ele>154.39999389648</ele>
        <time>2014-05-29T13:25:52.000Z</time>
      </trkpt>
      <trkpt lat="48.69525" lon="1.75392">
        <ele>154.60000610352</ele>
        <time>2014-05-29T13:25:59.000Z</time>
      </trkpt>
      <trkpt lat="48.6952" lon="1.75369">
        <ele>155.19999694824</ele>
        <time>2014-05-29T13:26:10.000Z</time>
      </trkpt>
      <trkpt lat="48.69513" lon="1.75346">
        <ele>156</ele>
        <time>2014-05-29T13:26:21.000Z</time>
      </trkpt>
      <trkpt lat="48.69508" lon="1.75324">
        <ele>156.60000610352</ele>
        <time>2014-05-29T13:26:32.000Z</time>
      </trkpt>
      <trkpt lat="48.69505" lon="1.75312">
        <ele>157.19999694824</ele>
        <time>2014-05-29T13:26:40.000Z</time>
      </trkpt>
      <trkpt lat="48.69502" lon="1.75296">
        <ele>158</ele>
        <time>2014-05-29T13:26:48.000Z</time>
      </trkpt>
      <trkpt lat="48.69498" lon="1.75286">
        <ele>158.39999389648</ele>
        <time>2014-05-29T13:26:54.000Z</time>
      </trkpt>
      <trkpt lat="48.69491" lon="1.75267">
        <ele>159.19999694824</ele>
        <time>2014-05-29T13:27:04.000Z</time>
      </trkpt>
      <trkpt lat="48.69488" lon="1.75255">
        <ele>159.80000305176</ele>
        <time>2014-05-29T13:27:10.000Z</time>
      </trkpt>
      <trkpt lat="48.69486" lon="1.7524">
        <ele>160.39999389648</ele>
        <time>2014-05-29T13:27:18.000Z</time>
      </trkpt>
      <trkpt lat="48.69483" lon="1.75225">
        <ele>161.39999389648</ele>
        <time>2014-05-29T13:27:25.000Z</time>
      </trkpt>
      <trkpt lat="48.69481" lon="1.75215">
        <ele>161.80000305176</ele>
        <time>2014-05-29T13:27:30.000Z</time>
      </trkpt>
      <trkpt lat="48.69476" lon="1.75197">
        <ele>163</ele>
        <time>2014-05-29T13:27:39.000Z</time>
      </trkpt>
      <trkpt lat="48.69472" lon="1.75183">
        <ele>163.60000610352</ele>
        <time>2014-05-29T13:27:46.000Z</time>
      </trkpt>
      <trkpt lat="48.69468" lon="1.75171">
        <ele>164</ele>
        <time>2014-05-29T13:27:53.000Z</time>
      </trkpt>
      <trkpt lat="48.69464" lon="1.75157">
        <ele>164.60000610352</ele>
        <time>2014-05-29T13:28:00.000Z</time>
      </trkpt>
      <trkpt lat="48.69461" lon="1.75142">
        <ele>165.19999694824</ele>
        <time>2014-05-29T13:28:08.000Z</time>
      </trkpt>
      <trkpt lat="48.6946" lon="1.75131">
        <ele>165.60000610352</ele>
        <time>2014-05-29T13:28:14.000Z</time>
      </trkpt>
      <trkpt lat="48.6946" lon="1.7513">
        <ele>165.60000610352</ele>
        <time>2014-05-29T13:28:15.000Z</time>
      </trkpt>
      <trkpt lat="48.69458" lon="1.75117">
        <ele>166</ele>
        <time>2014-05-29T13:28:22.000Z</time>
      </trkpt>
      <trkpt lat="48.69455" lon="1.75105">
        <ele>166.60000610352</ele>
        <time>2014-05-29T13:28:29.000Z</time>
      </trkpt>
      <trkpt lat="48.69451" lon="1.7509">
        <ele>167.19999694824</ele>
        <time>2014-05-29T13:28:37.000Z</time>
      </trkpt>
      <trkpt lat="48.69447" lon="1.75076">
        <ele>167.60000610352</ele>
        <time>2014-05-29T13:28:44.000Z</time>
      </trkpt>
      <trkpt lat="48.69444" lon="1.7506">
        <ele>167.80000305176</ele>
        <time>2014-05-29T13:28:53.000Z</time>
      </trkpt>
      <trkpt lat="48.6944" lon="1.75047">
        <ele>168</ele>
        <time>2014-05-29T13:29:00.000Z</time>
      </trkpt>
      <trkpt lat="48.69438" lon="1.75042">
        <ele>168</ele>
        <time>2014-05-29T13:29:03.000Z</time>
      </trkpt>
      <trkpt lat="48.69435" lon="1.75028">
        <ele>168</ele>
        <time>2014-05-29T13:29:10.000Z</time>
      </trkpt>
      <trkpt lat="48.69432" lon="1.75019">
        <ele>167.80000305176</ele>
        <time>2014-05-29T13:29:15.000Z</time>
      </trkpt>
      <trkpt lat="48.69431" lon="1.75015">
        <ele>167.80000305176</ele>
        <time>2014-05-29T13:29:17.000Z</time>
      </trkpt>
      <trkpt lat="48.69426" lon="1.74996">
        <ele>167.60000610352</ele>
        <time>2014-05-29T13:29:27.000Z</time>
      </trkpt>
      <trkpt lat="48.69425" lon="1.74992">
        <ele>167.60000610352</ele>
        <time>2014-05-29T13:29:29.000Z</time>
      </trkpt>
      <trkpt lat="48.69425" lon="1.74984">
        <ele>167.39999389648</ele>
        <time>2014-05-29T13:29:35.000Z</time>
      </trkpt>
      <trkpt lat="48.69422" lon="1.74974">
        <ele>166.80000305176</ele>
        <time>2014-05-29T13:29:42.000Z</time>
      </trkpt>
      <trkpt lat="48.69418" lon="1.74963">
        <ele>166.19999694824</ele>
        <time>2014-05-29T13:29:48.000Z</time>
      </trkpt>
      <trkpt lat="48.69418" lon="1.74959">
        <ele>166</ele>
        <time>2014-05-29T13:29:50.000Z</time>
      </trkpt>
      <trkpt lat="48.69413" lon="1.74946">
        <ele>165.39999389648</ele>
        <time>2014-05-29T13:29:57.000Z</time>
      </trkpt>
      <trkpt lat="48.69408" lon="1.74937">
        <ele>164.80000305176</ele>
        <time>2014-05-29T13:30:03.000Z</time>
      </trkpt>
      <trkpt lat="48.69404" lon="1.74932">
        <ele>164.39999389648</ele>
        <time>2014-05-29T13:30:06.000Z</time>
      </trkpt>
      <trkpt lat="48.69404" lon="1.74927">
        <ele>164.19999694824</ele>
        <time>2014-05-29T13:30:09.000Z</time>
      </trkpt>
      <trkpt lat="48.69401" lon="1.74918">
        <ele>163.80000305176</ele>
        <time>2014-05-29T13:30:14.000Z</time>
      </trkpt>
      <trkpt lat="48.69397" lon="1.7491">
        <ele>163.39999389648</ele>
        <time>2014-05-29T13:30:21.000Z</time>
      </trkpt>
      <trkpt lat="48.69396" lon="1.74899">
        <ele>163</ele>
        <time>2014-05-29T13:30:27.000Z</time>
      </trkpt>
      <trkpt lat="48.69395" lon="1.74889">
        <ele>163.19999694824</ele>
        <time>2014-05-29T13:30:31.000Z</time>
      </trkpt>
      <trkpt lat="48.69394" lon="1.74877">
        <ele>163.19999694824</ele>
        <time>2014-05-29T13:30:36.000Z</time>
      </trkpt>
      <trkpt lat="48.6939" lon="1.74869">
        <ele>163.19999694824</ele>
        <time>2014-05-29T13:30:40.000Z</time>
      </trkpt>
      <trkpt lat="48.69387" lon="1.74862">
        <ele>163.19999694824</ele>
        <time>2014-05-29T13:30:44.000Z</time>
      </trkpt>
      <trkpt lat="48.69382" lon="1.74849">
        <ele>163</ele>
        <time>2014-05-29T13:30:50.000Z</time>
      </trkpt>
      <trkpt lat="48.69377" lon="1.7483">
        <ele>162.39999389648</ele>
        <time>2014-05-29T13:30:59.000Z</time>
      </trkpt>
      <trkpt lat="48.69375" lon="1.74816">
        <ele>162.19999694824</ele>
        <time>2014-05-29T13:31:06.000Z</time>
      </trkpt>
      <trkpt lat="48.69372" lon="1.74802">
        <ele>163.19999694824</ele>
        <time>2014-05-29T13:31:14.000Z</time>
      </trkpt>
      <trkpt lat="48.6937" lon="1.74793">
        <ele>163.60000610352</ele>
        <time>2014-05-29T13:31:20.000Z</time>
      </trkpt>
      <trkpt lat="48.69371" lon="1.74791">
        <ele>163.80000305176</ele>
        <time>2014-05-29T13:31:21.000Z</time>
      </trkpt>
      <trkpt lat="48.69368" lon="1.74779">
        <ele>164.39999389648</ele>
        <time>2014-05-29T13:31:28.000Z</time>
      </trkpt>
      <trkpt lat="48.69369" lon="1.74776">
        <ele>164.60000610352</ele>
        <time>2014-05-29T13:31:30.000Z</time>
      </trkpt>
      <trkpt lat="48.69367" lon="1.7477">
        <ele>165</ele>
        <time>2014-05-29T13:31:34.000Z</time>
      </trkpt>
      <trkpt lat="48.69364" lon="1.74755">
        <ele>166</ele>
        <time>2014-05-29T13:31:42.000Z</time>
      </trkpt>
      <trkpt lat="48.69363" lon="1.74746">
        <ele>166.39999389648</ele>
        <time>2014-05-29T13:31:48.000Z</time>
      </trkpt>
      <trkpt lat="48.69358" lon="1.74732">
        <ele>166.80000305176</ele>
        <time>2014-05-29T13:31:55.000Z</time>
      </trkpt>
      <trkpt lat="48.69354" lon="1.74719">
        <ele>167</ele>
        <time>2014-05-29T13:32:03.000Z</time>
      </trkpt>
      <trkpt lat="48.69352" lon="1.74703">
        <ele>167</ele>
        <time>2014-05-29T13:32:12.000Z</time>
      </trkpt>
      <trkpt lat="48.69348" lon="1.74688">
        <ele>167</ele>
        <time>2014-05-29T13:32:20.000Z</time>
      </trkpt>
      <trkpt lat="48.69345" lon="1.74674">
        <ele>167</ele>
        <time>2014-05-29T13:32:28.000Z</time>
      </trkpt>
      <trkpt lat="48.6934" lon="1.74656">
        <ele>167.19999694824</ele>
        <time>2014-05-29T13:32:37.000Z</time>
      </trkpt>
      <trkpt lat="48.69335" lon="1.74639">
        <ele>167.39999389648</ele>
        <time>2014-05-29T13:32:45.000Z</time>
      </trkpt>
      <trkpt lat="48.69329" lon="1.74618">
        <ele>167.80000305176</ele>
        <time>2014-05-29T13:32:57.000Z</time>
      </trkpt>
      <trkpt lat="48.69325" lon="1.74604">
        <ele>168</ele>
        <time>2014-05-29T13:33:05.000Z</time>
      </trkpt>
      <trkpt lat="48.69323" lon="1.7459">
        <ele>168.19999694824</ele>
        <time>2014-05-29T13:33:13.000Z</time>
      </trkpt>
      <trkpt lat="48.69318" lon="1.74576">
        <ele>168.39999389648</ele>
        <time>2014-05-29T13:33:20.000Z</time>
      </trkpt>
      <trkpt lat="48.6931" lon="1.74558">
        <ele>168.60000610352</ele>
        <time>2014-05-29T13:33:30.000Z</time>
      </trkpt>
      <trkpt lat="48.69306" lon="1.74544">
        <ele>168.60000610352</ele>
        <time>2014-05-29T13:33:37.000Z</time>
      </trkpt>
      <trkpt lat="48.69302" lon="1.74533">
        <ele>168.60000610352</ele>
        <time>2014-05-29T13:33:43.000Z</time>
      </trkpt>
      <trkpt lat="48.69301" lon="1.7453">
        <ele>168.60000610352</ele>
        <time>2014-05-29T13:33:44.000Z</time>
      </trkpt>
      <trkpt lat="48.69298" lon="1.74514">
        <ele>168.60000610352</ele>
        <time>2014-05-29T13:33:52.000Z</time>
      </trkpt>
      <trkpt lat="48.69295" lon="1.74497">
        <ele>168.60000610352</ele>
        <time>2014-05-29T13:34:00.000Z</time>
      </trkpt>
      <trkpt lat="48.6929" lon="1.74485">
        <ele>168.39999389648</ele>
        <time>2014-05-29T13:34:07.000Z</time>
      </trkpt>
      <trkpt lat="48.69286" lon="1.74468">
        <ele>167.60000610352</ele>
        <time>2014-05-29T13:34:16.000Z</time>
      </trkpt>
      <trkpt lat="48.69284" lon="1.7445">
        <ele>166.80000305176</ele>
        <time>2014-05-29T13:34:24.000Z</time>
      </trkpt>
      <trkpt lat="48.69277" lon="1.74434">
        <ele>166.19999694824</ele>
        <time>2014-05-29T13:34:32.000Z</time>
      </trkpt>
      <trkpt lat="48.69271" lon="1.74414">
        <ele>165.39999389648</ele>
        <time>2014-05-29T13:34:41.000Z</time>
      </trkpt>
      <trkpt lat="48.69268" lon="1.74398">
        <ele>164.60000610352</ele>
        <time>2014-05-29T13:34:49.000Z</time>
      </trkpt>
      <trkpt lat="48.69267" lon="1.7439">
        <ele>164</ele>
        <time>2014-05-29T13:34:54.000Z</time>
      </trkpt>
      <trkpt lat="48.69267" lon="1.74384">
        <ele>163.39999389648</ele>
        <time>2014-05-29T13:34:57.000Z</time>
      </trkpt>
      <trkpt lat="48.69265" lon="1.74374">
        <ele>162.60000610352</ele>
        <time>2014-05-29T13:35:03.000Z</time>
      </trkpt>
      <trkpt lat="48.69263" lon="1.74363">
        <ele>161.80000305176</ele>
        <time>2014-05-29T13:35:09.000Z</time>
      </trkpt>
      <trkpt lat="48.69261" lon="1.74355">
        <ele>161.19999694824</ele>
        <time>2014-05-29T13:35:13.000Z</time>
      </trkpt>
      <trkpt lat="48.69255" lon="1.74338">
        <ele>160.19999694824</ele>
        <time>2014-05-29T13:35:21.000Z</time>
      </trkpt>
      <trkpt lat="48.69251" lon="1.74325">
        <ele>159.39999389648</ele>
        <time>2014-05-29T13:35:27.000Z</time>
      </trkpt>
      <trkpt lat="48.6925" lon="1.74324">
        <ele>159.19999694824</ele>
        <time>2014-05-29T13:35:28.000Z</time>
      </trkpt>
      <trkpt lat="48.69247" lon="1.74309">
        <ele>158.80000305176</ele>
        <time>2014-05-29T13:35:35.000Z</time>
      </trkpt>
      <trkpt lat="48.69243" lon="1.74297">
        <ele>158.80000305176</ele>
        <time>2014-05-29T13:35:42.000Z</time>
      </trkpt>
      <trkpt lat="48.69238" lon="1.74284">
        <ele>158.60000610352</ele>
        <time>2014-05-29T13:35:49.000Z</time>
      </trkpt>
      <trkpt lat="48.69234" lon="1.7427">
        <ele>158.39999389648</ele>
        <time>2014-05-29T13:35:55.000Z</time>
      </trkpt>
      <trkpt lat="48.6923" lon="1.74254">
        <ele>158</ele>
        <time>2014-05-29T13:36:03.000Z</time>
      </trkpt>
      <trkpt lat="48.69227" lon="1.74244">
        <ele>157.80000305176</ele>
        <time>2014-05-29T13:36:08.000Z</time>
      </trkpt>
      <trkpt lat="48.6922" lon="1.7422">
        <ele>158</ele>
        <time>2014-05-29T13:36:20.000Z</time>
      </trkpt>
      <trkpt lat="48.69219" lon="1.74205">
        <ele>158</ele>
        <time>2014-05-29T13:36:28.000Z</time>
      </trkpt>
      <trkpt lat="48.69217" lon="1.74196">
        <ele>158.19999694824</ele>
        <time>2014-05-29T13:36:33.000Z</time>
      </trkpt>
      <trkpt lat="48.69213" lon="1.74183">
        <ele>158.39999389648</ele>
        <time>2014-05-29T13:36:41.000Z</time>
      </trkpt>
      <trkpt lat="48.69211" lon="1.74169">
        <ele>159.19999694824</ele>
        <time>2014-05-29T13:36:48.000Z</time>
      </trkpt>
      <trkpt lat="48.69209" lon="1.7415">
        <ele>160.39999389648</ele>
        <time>2014-05-29T13:36:57.000Z</time>
      </trkpt>
      <trkpt lat="48.69206" lon="1.74133">
        <ele>160.39999389648</ele>
        <time>2014-05-29T13:37:06.000Z</time>
      </trkpt>
      <trkpt lat="48.69206" lon="1.74131">
        <ele>160.60000610352</ele>
        <time>2014-05-29T13:37:07.000Z</time>
      </trkpt>
      <trkpt lat="48.69202" lon="1.74119">
        <ele>160.60000610352</ele>
        <time>2014-05-29T13:37:14.000Z</time>
      </trkpt>
      <trkpt lat="48.69196" lon="1.74104">
        <ele>160.80000305176</ele>
        <time>2014-05-29T13:37:22.000Z</time>
      </trkpt>
      <trkpt lat="48.69193" lon="1.74091">
        <ele>160.80000305176</ele>
        <time>2014-05-29T13:37:28.000Z</time>
      </trkpt>
      <trkpt lat="48.69188" lon="1.74073">
        <ele>161</ele>
        <time>2014-05-29T13:37:37.000Z</time>
      </trkpt>
      <trkpt lat="48.69182" lon="1.74056">
        <ele>161.39999389648</ele>
        <time>2014-05-29T13:37:46.000Z</time>
      </trkpt>
      <trkpt lat="48.69176" lon="1.74036">
        <ele>162</ele>
        <time>2014-05-29T13:37:56.000Z</time>
      </trkpt>
      <trkpt lat="48.6917" lon="1.74019">
        <ele>162.39999389648</ele>
        <time>2014-05-29T13:38:05.000Z</time>
      </trkpt>
      <trkpt lat="48.69169" lon="1.74018">
        <ele>162.39999389648</ele>
        <time>2014-05-29T13:38:06.000Z</time>
      </trkpt>
      <trkpt lat="48.69168" lon="1.74007">
        <ele>162.60000610352</ele>
        <time>2014-05-29T13:38:12.000Z</time>
      </trkpt>
      <trkpt lat="48.69167" lon="1.74003">
        <ele>162.80000305176</ele>
        <time>2014-05-29T13:38:14.000Z</time>
      </trkpt>
      <trkpt lat="48.69162" lon="1.73987">
        <ele>163.19999694824</ele>
        <time>2014-05-29T13:38:23.000Z</time>
      </trkpt>
      <trkpt lat="48.69159" lon="1.73973">
        <ele>163.39999389648</ele>
        <time>2014-05-29T13:38:30.000Z</time>
      </trkpt>
      <trkpt lat="48.69153" lon="1.73958">
        <ele>163.60000610352</ele>
        <time>2014-05-29T13:38:38.000Z</time>
      </trkpt>
      <trkpt lat="48.6915" lon="1.7395">
        <ele>163.80000305176</ele>
        <time>2014-05-29T13:38:43.000Z</time>
      </trkpt>
      <trkpt lat="48.69147" lon="1.73932">
        <ele>164.60000610352</ele>
        <time>2014-05-29T13:38:52.000Z</time>
      </trkpt>
      <trkpt lat="48.69143" lon="1.73914">
        <ele>165.60000610352</ele>
        <time>2014-05-29T13:39:01.000Z</time>
      </trkpt>
      <trkpt lat="48.69141" lon="1.73897">
        <ele>166.39999389648</ele>
        <time>2014-05-29T13:39:09.000Z</time>
      </trkpt>
      <trkpt lat="48.69137" lon="1.73886">
        <ele>167.19999694824</ele>
        <time>2014-05-29T13:39:15.000Z</time>
      </trkpt>
      <trkpt lat="48.69135" lon="1.73876">
        <ele>168</ele>
        <time>2014-05-29T13:39:21.000Z</time>
      </trkpt>
      <trkpt lat="48.69131" lon="1.73864">
        <ele>168.80000305176</ele>
        <time>2014-05-29T13:39:28.000Z</time>
      </trkpt>
      <trkpt lat="48.6913" lon="1.73858">
        <ele>169.19999694824</ele>
        <time>2014-05-29T13:39:31.000Z</time>
      </trkpt>
      <trkpt lat="48.69125" lon="1.73847">
        <ele>170.19999694824</ele>
        <time>2014-05-29T13:39:37.000Z</time>
      </trkpt>
      <trkpt lat="48.69123" lon="1.73837">
        <ele>170.80000305176</ele>
        <time>2014-05-29T13:39:42.000Z</time>
      </trkpt>
      <trkpt lat="48.69124" lon="1.73835">
        <ele>171</ele>
        <time>2014-05-29T13:39:43.000Z</time>
      </trkpt>
      <trkpt lat="48.69123" lon="1.73829">
        <ele>171.39999389648</ele>
        <time>2014-05-29T13:39:46.000Z</time>
      </trkpt>
      <trkpt lat="48.69121" lon="1.73815">
        <ele>172.19999694824</ele>
        <time>2014-05-29T13:39:54.000Z</time>
      </trkpt>
      <trkpt lat="48.69118" lon="1.73806">
        <ele>172.60000610352</ele>
        <time>2014-05-29T13:40:00.000Z</time>
      </trkpt>
      <trkpt lat="48.69116" lon="1.73796">
        <ele>172.80000305176</ele>
        <time>2014-05-29T13:40:05.000Z</time>
      </trkpt>
      <trkpt lat="48.69116" lon="1.73787">
        <ele>173.19999694824</ele>
        <time>2014-05-29T13:40:10.000Z</time>
      </trkpt>
      <trkpt lat="48.69113" lon="1.73778">
        <ele>173.60000610352</ele>
        <time>2014-05-29T13:40:15.000Z</time>
      </trkpt>
      <trkpt lat="48.6911" lon="1.73765">
        <ele>174</ele>
        <time>2014-05-29T13:40:22.000Z</time>
      </trkpt>
      <trkpt lat="48.69105" lon="1.73747">
        <ele>174.60000610352</ele>
        <time>2014-05-29T13:40:31.000Z</time>
      </trkpt>
      <trkpt lat="48.69102" lon="1.73736">
        <ele>175</ele>
        <time>2014-05-29T13:40:38.000Z</time>
      </trkpt>
      <trkpt lat="48.69098" lon="1.73723">
        <ele>174.80000305176</ele>
        <time>2014-05-29T13:40:46.000Z</time>
      </trkpt>
      <trkpt lat="48.69092" lon="1.73715">
        <ele>174.80000305176</ele>
        <time>2014-05-29T13:40:51.000Z</time>
      </trkpt>
      <trkpt lat="48.69087" lon="1.73697">
        <ele>174.60000610352</ele>
        <time>2014-05-29T13:41:00.000Z</time>
      </trkpt>
      <trkpt lat="48.69084" lon="1.73689">
        <ele>174.60000610352</ele>
        <time>2014-05-29T13:41:04.000Z</time>
      </trkpt>
      <trkpt lat="48.69079" lon="1.73671">
        <ele>174.39999389648</ele>
        <time>2014-05-29T13:41:14.000Z</time>
      </trkpt>
      <trkpt lat="48.69076" lon="1.73656">
        <ele>174.39999389648</ele>
        <time>2014-05-29T13:41:22.000Z</time>
      </trkpt>
      <trkpt lat="48.69071" lon="1.73636">
        <ele>173.80000305176</ele>
        <time>2014-05-29T13:41:32.000Z</time>
      </trkpt>
      <trkpt lat="48.69068" lon="1.73624">
        <ele>173.39999389648</ele>
        <time>2014-05-29T13:41:40.000Z</time>
      </trkpt>
      <trkpt lat="48.69064" lon="1.7362">
        <ele>173.19999694824</ele>
        <time>2014-05-29T13:41:44.000Z</time>
      </trkpt>
      <trkpt lat="48.69062" lon="1.73612">
        <ele>173</ele>
        <time>2014-05-29T13:41:50.000Z</time>
      </trkpt>
      <trkpt lat="48.69061" lon="1.7361">
        <ele>173</ele>
        <time>2014-05-29T13:41:52.000Z</time>
      </trkpt>
      <trkpt lat="48.69058" lon="1.73608">
        <ele>172.80000305176</ele>
        <time>2014-05-29T13:41:55.000Z</time>
      </trkpt>
      <trkpt lat="48.69049" lon="1.73608">
        <ele>172.60000610352</ele>
        <time>2014-05-29T13:42:02.000Z</time>
      </trkpt>
      <trkpt lat="48.69041" lon="1.73607">
        <ele>172.39999389648</ele>
        <time>2014-05-29T13:42:09.000Z</time>
      </trkpt>
      <trkpt lat="48.69029" lon="1.73607">
        <ele>172</ele>
        <time>2014-05-29T13:42:17.000Z</time>
      </trkpt>
      <trkpt lat="48.69022" lon="1.73605">
        <ele>171.80000305176</ele>
        <time>2014-05-29T13:42:23.000Z</time>
      </trkpt>
      <trkpt lat="48.69014" lon="1.73604">
        <ele>171.60000610352</ele>
        <time>2014-05-29T13:42:29.000Z</time>
      </trkpt>
      <trkpt lat="48.69005" lon="1.73602">
        <ele>171.39999389648</ele>
        <time>2014-05-29T13:42:36.000Z</time>
      </trkpt>
      <trkpt lat="48.69001" lon="1.736">
        <ele>171.19999694824</ele>
        <time>2014-05-29T13:42:39.000Z</time>
      </trkpt>
      <trkpt lat="48.6899" lon="1.73598">
        <ele>171</ele>
        <time>2014-05-29T13:42:47.000Z</time>
      </trkpt>
      <trkpt lat="48.68981" lon="1.73597">
        <ele>170.60000610352</ele>
        <time>2014-05-29T13:42:54.000Z</time>
      </trkpt>
      <trkpt lat="48.68969" lon="1.73597">
        <ele>170.39999389648</ele>
        <time>2014-05-29T13:43:02.000Z</time>
      </trkpt>
      <trkpt lat="48.6896" lon="1.73597">
        <ele>170.19999694824</ele>
        <time>2014-05-29T13:43:09.000Z</time>
      </trkpt>
      <trkpt lat="48.68952" lon="1.73596">
        <ele>170</ele>
        <time>2014-05-29T13:43:15.000Z</time>
      </trkpt>
      <trkpt lat="48.68937" lon="1.73595">
        <ele>169.60000610352</ele>
        <time>2014-05-29T13:43:25.000Z</time>
      </trkpt>
      <trkpt lat="48.68925" lon="1.73594">
        <ele>169.60000610352</ele>
        <time>2014-05-29T13:43:33.000Z</time>
      </trkpt>
      <trkpt lat="48.68915" lon="1.73593">
        <ele>169.80000305176</ele>
        <time>2014-05-29T13:43:40.000Z</time>
      </trkpt>
      <trkpt lat="48.68903" lon="1.73591">
        <ele>169.80000305176</ele>
        <time>2014-05-29T13:43:48.000Z</time>
      </trkpt>
      <trkpt lat="48.68894" lon="1.7359">
        <ele>170</ele>
        <time>2014-05-29T13:43:55.000Z</time>
      </trkpt>
      <trkpt lat="48.68881" lon="1.73589">
        <ele>170.19999694824</ele>
        <time>2014-05-29T13:44:03.000Z</time>
      </trkpt>
      <trkpt lat="48.68873" lon="1.73587">
        <ele>170.19999694824</ele>
        <time>2014-05-29T13:44:09.000Z</time>
      </trkpt>
      <trkpt lat="48.68859" lon="1.73586">
        <ele>170</ele>
        <time>2014-05-29T13:44:18.000Z</time>
      </trkpt>
      <trkpt lat="48.68857" lon="1.73586">
        <ele>170</ele>
        <time>2014-05-29T13:44:22.000Z</time>
      </trkpt>
      <trkpt lat="48.68845" lon="1.73586">
        <ele>170</ele>
        <time>2014-05-29T13:44:36.000Z</time>
      </trkpt>
      <trkpt lat="48.6884" lon="1.73584">
        <ele>170</ele>
        <time>2014-05-29T13:44:41.000Z</time>
      </trkpt>
      <trkpt lat="48.6884" lon="1.73584">
        <ele>170</ele>
        <time>2014-05-29T13:44:42.000Z</time>
      </trkpt>
      <trkpt lat="48.68825" lon="1.73581">
        <ele>170</ele>
        <time>2014-05-29T13:45:06.000Z</time>
      </trkpt>
      <trkpt lat="48.68812" lon="1.7358">
        <ele>170</ele>
        <time>2014-05-29T13:45:16.000Z</time>
      </trkpt>
      <trkpt lat="48.68804" lon="1.73579">
        <ele>170</ele>
        <time>2014-05-29T13:45:23.000Z</time>
      </trkpt>
      <trkpt lat="48.68801" lon="1.73578">
        <ele>170</ele>
        <time>2014-05-29T13:45:27.000Z</time>
      </trkpt>
      <trkpt lat="48.68796" lon="1.7358">
        <ele>170</ele>
        <time>2014-05-29T13:45:34.000Z</time>
      </trkpt>
      <trkpt lat="48.68785" lon="1.73582">
        <ele>170</ele>
        <time>2014-05-29T13:46:07.000Z</time>
      </trkpt>
      <trkpt lat="48.68778" lon="1.73581">
        <ele>170</ele>
        <time>2014-05-29T13:46:12.000Z</time>
      </trkpt>
      <trkpt lat="48.68768" lon="1.73578">
        <ele>170</ele>
        <time>2014-05-29T13:46:20.000Z</time>
      </trkpt>
      <trkpt lat="48.6876" lon="1.73577">
        <ele>169.60000610352</ele>
        <time>2014-05-29T13:46:26.000Z</time>
      </trkpt>
      <trkpt lat="48.68749" lon="1.73575">
        <ele>169</ele>
        <time>2014-05-29T13:46:34.000Z</time>
      </trkpt>
      <trkpt lat="48.6874" lon="1.73575">
        <ele>168.60000610352</ele>
        <time>2014-05-29T13:46:41.000Z</time>
      </trkpt>
      <trkpt lat="48.68731" lon="1.73573">
        <ele>168.19999694824</ele>
        <time>2014-05-29T13:46:47.000Z</time>
      </trkpt>
      <trkpt lat="48.68724" lon="1.73572">
        <ele>167.80000305176</ele>
        <time>2014-05-29T13:46:53.000Z</time>
      </trkpt>
      <trkpt lat="48.68714" lon="1.73568">
        <ele>167.19999694824</ele>
        <time>2014-05-29T13:47:01.000Z</time>
      </trkpt>
      <trkpt lat="48.68713" lon="1.73568">
        <ele>167.19999694824</ele>
        <time>2014-05-29T13:47:02.000Z</time>
      </trkpt>
      <trkpt lat="48.68702" lon="1.73566">
        <ele>166.60000610352</ele>
        <time>2014-05-29T13:47:10.000Z</time>
      </trkpt>
      <trkpt lat="48.6869" lon="1.73564">
        <ele>166</ele>
        <time>2014-05-29T13:47:18.000Z</time>
      </trkpt>
      <trkpt lat="48.68678" lon="1.73563">
        <ele>165.80000305176</ele>
        <time>2014-05-29T13:47:26.000Z</time>
      </trkpt>
      <trkpt lat="48.68668" lon="1.73561">
        <ele>165.39999389648</ele>
        <time>2014-05-29T13:47:33.000Z</time>
      </trkpt>
      <trkpt lat="48.6866" lon="1.73561">
        <ele>165</ele>
        <time>2014-05-29T13:47:39.000Z</time>
      </trkpt>
      <trkpt lat="48.68654" lon="1.73564">
        <ele>164.60000610352</ele>
        <time>2014-05-29T13:47:45.000Z</time>
      </trkpt>
      <trkpt lat="48.68644" lon="1.73563">
        <ele>164.19999694824</ele>
        <time>2014-05-29T13:47:53.000Z</time>
      </trkpt>
      <trkpt lat="48.68638" lon="1.73561">
        <ele>163.80000305176</ele>
        <time>2014-05-29T13:48:00.000Z</time>
      </trkpt>
      <trkpt lat="48.68632" lon="1.73561">
        <ele>163.60000610352</ele>
        <time>2014-05-29T13:48:04.000Z</time>
      </trkpt>
      <trkpt lat="48.68626" lon="1.73561">
        <ele>163.39999389648</ele>
        <time>2014-05-29T13:48:09.000Z</time>
      </trkpt>
      <trkpt lat="48.68618" lon="1.73566">
        <ele>162.80000305176</ele>
        <time>2014-05-29T13:48:14.000Z</time>
      </trkpt>
      <trkpt lat="48.6861" lon="1.7357">
        <ele>162.39999389648</ele>
        <time>2014-05-29T13:48:20.000Z</time>
      </trkpt>
      <trkpt lat="48.68609" lon="1.73574">
        <ele>162.39999389648</ele>
        <time>2014-05-29T13:48:22.000Z</time>
      </trkpt>
      <trkpt lat="48.68608" lon="1.73591">
        <ele>162.39999389648</ele>
        <time>2014-05-29T13:48:29.000Z</time>
      </trkpt>
      <trkpt lat="48.68612" lon="1.73602">
        <ele>162.80000305176</ele>
        <time>2014-05-29T13:48:35.000Z</time>
      </trkpt>
      <trkpt lat="48.68614" lon="1.73604">
        <ele>163</ele>
        <time>2014-05-29T13:48:36.000Z</time>
      </trkpt>
      <trkpt lat="48.68615" lon="1.73608">
        <ele>163.19999694824</ele>
        <time>2014-05-29T13:48:38.000Z</time>
      </trkpt>
      <trkpt lat="48.68618" lon="1.73623">
        <ele>163.39999389648</ele>
        <time>2014-05-29T13:48:46.000Z</time>
      </trkpt>
      <trkpt lat="48.68618" lon="1.73625">
        <ele>163.39999389648</ele>
        <time>2014-05-29T13:48:47.000Z</time>
      </trkpt>
      <trkpt lat="48.68619" lon="1.73643">
        <ele>163.60000610352</ele>
        <time>2014-05-29T13:48:55.000Z</time>
      </trkpt>
      <trkpt lat="48.6862" lon="1.73653">
        <ele>163.60000610352</ele>
        <time>2014-05-29T13:49:00.000Z</time>
      </trkpt>
      <trkpt lat="48.68621" lon="1.73666">
        <ele>164</ele>
        <time>2014-05-29T13:49:07.000Z</time>
      </trkpt>
      <trkpt lat="48.68623" lon="1.73682">
        <ele>164.80000305176</ele>
        <time>2014-05-29T13:49:14.000Z</time>
      </trkpt>
      <trkpt lat="48.68624" lon="1.73695">
        <ele>165.60000610352</ele>
        <time>2014-05-29T13:49:19.000Z</time>
      </trkpt>
      <trkpt lat="48.68626" lon="1.73714">
        <ele>167</ele>
        <time>2014-05-29T13:49:27.000Z</time>
      </trkpt>
      <trkpt lat="48.68626" lon="1.73733">
        <ele>168.19999694824</ele>
        <time>2014-05-29T13:49:36.000Z</time>
      </trkpt>
      <trkpt lat="48.68628" lon="1.73743">
        <ele>168.39999389648</ele>
        <time>2014-05-29T13:49:42.000Z</time>
      </trkpt>
      <trkpt lat="48.68629" lon="1.73758">
        <ele>168.39999389648</ele>
        <time>2014-05-29T13:49:49.000Z</time>
      </trkpt>
      <trkpt lat="48.68632" lon="1.73775">
        <ele>168.60000610352</ele>
        <time>2014-05-29T13:49:57.000Z</time>
      </trkpt>
      <trkpt lat="48.68631" lon="1.73789">
        <ele>168.60000610352</ele>
        <time>2014-05-29T13:50:03.000Z</time>
      </trkpt>
      <trkpt lat="48.68633" lon="1.73798">
        <ele>168.80000305176</ele>
        <time>2014-05-29T13:50:07.000Z</time>
      </trkpt>
      <trkpt lat="48.68637" lon="1.73814">
        <ele>169.19999694824</ele>
        <time>2014-05-29T13:50:15.000Z</time>
      </trkpt>
      <trkpt lat="48.68639" lon="1.73825">
        <ele>169.19999694824</ele>
        <time>2014-05-29T13:50:20.000Z</time>
      </trkpt>
      <trkpt lat="48.68639" lon="1.73837">
        <ele>168.80000305176</ele>
        <time>2014-05-29T13:50:25.000Z</time>
      </trkpt>
      <trkpt lat="48.6864" lon="1.7384">
        <ele>168.80000305176</ele>
        <time>2014-05-29T13:50:27.000Z</time>
      </trkpt>
      <trkpt lat="48.6864" lon="1.73848">
        <ele>168.60000610352</ele>
        <time>2014-05-29T13:50:31.000Z</time>
      </trkpt>
      <trkpt lat="48.68642" lon="1.73857">
        <ele>168.60000610352</ele>
        <time>2014-05-29T13:50:36.000Z</time>
      </trkpt>
      <trkpt lat="48.68642" lon="1.73862">
        <ele>168.39999389648</ele>
        <time>2014-05-29T13:50:39.000Z</time>
      </trkpt>
      <trkpt lat="48.68644" lon="1.73879">
        <ele>168</ele>
        <time>2014-05-29T13:50:47.000Z</time>
      </trkpt>
      <trkpt lat="48.68645" lon="1.73889">
        <ele>167.80000305176</ele>
        <time>2014-05-29T13:50:52.000Z</time>
      </trkpt>
      <trkpt lat="48.68649" lon="1.73896">
        <ele>167.80000305176</ele>
        <time>2014-05-29T13:50:56.000Z</time>
      </trkpt>
      <trkpt lat="48.68651" lon="1.73901">
        <ele>167.80000305176</ele>
        <time>2014-05-29T13:50:59.000Z</time>
      </trkpt>
      <trkpt lat="48.68651" lon="1.73905">
        <ele>167.60000610352</ele>
        <time>2014-05-29T13:51:01.000Z</time>
      </trkpt>
      <trkpt lat="48.68651" lon="1.73924">
        <ele>167</ele>
        <time>2014-05-29T13:51:08.000Z</time>
      </trkpt>
      <trkpt lat="48.68653" lon="1.73933">
        <ele>166.80000305176</ele>
        <time>2014-05-29T13:51:13.000Z</time>
      </trkpt>
      <trkpt lat="48.68653" lon="1.73935">
        <ele>166.80000305176</ele>
        <time>2014-05-29T13:51:14.000Z</time>
      </trkpt>
      <trkpt lat="48.68658" lon="1.73951">
        <ele>166.19999694824</ele>
        <time>2014-05-29T13:51:21.000Z</time>
      </trkpt>
      <trkpt lat="48.68659" lon="1.73962">
        <ele>166</ele>
        <time>2014-05-29T13:51:25.000Z</time>
      </trkpt>
      <trkpt lat="48.68663" lon="1.73968">
        <ele>166</ele>
        <time>2014-05-29T13:51:30.000Z</time>
      </trkpt>
      <trkpt lat="48.68664" lon="1.73973">
        <ele>166</ele>
        <time>2014-05-29T13:51:33.000Z</time>
      </trkpt>
      <trkpt lat="48.68666" lon="1.73982">
        <ele>166</ele>
        <time>2014-05-29T13:51:39.000Z</time>
      </trkpt>
      <trkpt lat="48.68666" lon="1.73982">
        <ele>166</ele>
        <time>2014-05-29T13:51:40.000Z</time>
      </trkpt>
      <trkpt lat="48.68666" lon="1.73987">
        <ele>166</ele>
        <time>2014-05-29T13:51:42.000Z</time>
      </trkpt>
      <trkpt lat="48.68665" lon="1.73994">
        <ele>165.80000305176</ele>
        <time>2014-05-29T13:51:46.000Z</time>
      </trkpt>
      <trkpt lat="48.68665" lon="1.74">
        <ele>165.60000610352</ele>
        <time>2014-05-29T13:51:50.000Z</time>
      </trkpt>
      <trkpt lat="48.68667" lon="1.74014">
        <ele>165</ele>
        <time>2014-05-29T13:51:58.000Z</time>
      </trkpt>
      <trkpt lat="48.68669" lon="1.74018">
        <ele>164.80000305176</ele>
        <time>2014-05-29T13:52:01.000Z</time>
      </trkpt>
      <trkpt lat="48.68677" lon="1.7402">
        <ele>164.80000305176</ele>
        <time>2014-05-29T13:52:07.000Z</time>
      </trkpt>
      <trkpt lat="48.6868" lon="1.74022">
        <ele>164.80000305176</ele>
        <time>2014-05-29T13:52:10.000Z</time>
      </trkpt>
      <trkpt lat="48.68678" lon="1.74033">
        <ele>164.39999389648</ele>
        <time>2014-05-29T13:52:16.000Z</time>
      </trkpt>
      <trkpt lat="48.68677" lon="1.74035">
        <ele>164.19999694824</ele>
        <time>2014-05-29T13:52:17.000Z</time>
      </trkpt>
      <trkpt lat="48.68677" lon="1.7405">
        <ele>163.80000305176</ele>
        <time>2014-05-29T13:52:24.000Z</time>
      </trkpt>
      <trkpt lat="48.6868" lon="1.74065">
        <ele>163.19999694824</ele>
        <time>2014-05-29T13:52:31.000Z</time>
      </trkpt>
      <trkpt lat="48.68682" lon="1.74079">
        <ele>162.60000610352</ele>
        <time>2014-05-29T13:52:38.000Z</time>
      </trkpt>
      <trkpt lat="48.68684" lon="1.74094">
        <ele>161.60000610352</ele>
        <time>2014-05-29T13:52:44.000Z</time>
      </trkpt>
      <trkpt lat="48.68685" lon="1.74108">
        <ele>160.80000305176</ele>
        <time>2014-05-29T13:52:50.000Z</time>
      </trkpt>
      <trkpt lat="48.68686" lon="1.74117">
        <ele>160.19999694824</ele>
        <time>2014-05-29T13:52:54.000Z</time>
      </trkpt>
      <trkpt lat="48.68687" lon="1.74124">
        <ele>159.80000305176</ele>
        <time>2014-05-29T13:52:57.000Z</time>
      </trkpt>
      <trkpt lat="48.68689" lon="1.74135">
        <ele>159</ele>
        <time>2014-05-29T13:53:02.000Z</time>
      </trkpt>
      <trkpt lat="48.68691" lon="1.74142">
        <ele>158.39999389648</ele>
        <time>2014-05-29T13:53:05.000Z</time>
      </trkpt>
      <trkpt lat="48.68693" lon="1.74158">
        <ele>157.80000305176</ele>
        <time>2014-05-29T13:53:12.000Z</time>
      </trkpt>
      <trkpt lat="48.68696" lon="1.7417">
        <ele>157.80000305176</ele>
        <time>2014-05-29T13:53:19.000Z</time>
      </trkpt>
      <trkpt lat="48.68696" lon="1.74172">
        <ele>157.80000305176</ele>
        <time>2014-05-29T13:53:20.000Z</time>
      </trkpt>
      <trkpt lat="48.68696" lon="1.74186">
        <ele>157.60000610352</ele>
        <time>2014-05-29T13:53:27.000Z</time>
      </trkpt>
      <trkpt lat="48.68695" lon="1.74198">
        <ele>157.39999389648</ele>
        <time>2014-05-29T13:53:32.000Z</time>
      </trkpt>
      <trkpt lat="48.68696" lon="1.74215">
        <ele>157.19999694824</ele>
        <time>2014-05-29T13:53:38.000Z</time>
      </trkpt>
      <trkpt lat="48.68696" lon="1.74218">
        <ele>157.19999694824</ele>
        <time>2014-05-29T13:53:39.000Z</time>
      </trkpt>
      <trkpt lat="48.68694" lon="1.74231">
        <ele>157</ele>
        <time>2014-05-29T13:53:44.000Z</time>
      </trkpt>
      <trkpt lat="48.68694" lon="1.74234">
        <ele>157</ele>
        <time>2014-05-29T13:53:46.000Z</time>
      </trkpt>
      <trkpt lat="48.68689" lon="1.7424">
        <ele>157.39999389648</ele>
        <time>2014-05-29T13:53:53.000Z</time>
      </trkpt>
      <trkpt lat="48.68681" lon="1.74244">
        <ele>157.19999694824</ele>
        <time>2014-05-29T13:54:01.000Z</time>
      </trkpt>
      <trkpt lat="48.68674" lon="1.74246">
        <ele>157.39999389648</ele>
        <time>2014-05-29T13:54:08.000Z</time>
      </trkpt>
      <trkpt lat="48.68666" lon="1.74247">
        <ele>157.39999389648</ele>
        <time>2014-05-29T13:54:15.000Z</time>
      </trkpt>
      <trkpt lat="48.68662" lon="1.74247">
        <ele>157.60000610352</ele>
        <time>2014-05-29T13:54:20.000Z</time>
      </trkpt>
      <trkpt lat="48.68658" lon="1.74249">
        <ele>157.60000610352</ele>
        <time>2014-05-29T13:54:24.000Z</time>
      </trkpt>
      <trkpt lat="48.68651" lon="1.74254">
        <ele>157.80000305176</ele>
        <time>2014-05-29T13:54:29.000Z</time>
      </trkpt>
      <trkpt lat="48.68641" lon="1.74263">
        <ele>158.19999694824</ele>
        <time>2014-05-29T13:54:36.000Z</time>
      </trkpt>
      <trkpt lat="48.68639" lon="1.74264">
        <ele>158.19999694824</ele>
        <time>2014-05-29T13:54:37.000Z</time>
      </trkpt>
      <trkpt lat="48.6863" lon="1.74268">
        <ele>158.19999694824</ele>
        <time>2014-05-29T13:54:44.000Z</time>
      </trkpt>
      <trkpt lat="48.68625" lon="1.7427">
        <ele>157.80000305176</ele>
        <time>2014-05-29T13:54:50.000Z</time>
      </trkpt>
      <trkpt lat="48.68621" lon="1.74274">
        <ele>157.60000610352</ele>
        <time>2014-05-29T13:54:52.000Z</time>
      </trkpt>
      <trkpt lat="48.68614" lon="1.74277">
        <ele>157</ele>
        <time>2014-05-29T13:54:57.000Z</time>
      </trkpt>
      <trkpt lat="48.68612" lon="1.74279">
        <ele>156.80000305176</ele>
        <time>2014-05-29T13:55:00.000Z</time>
      </trkpt>
      <trkpt lat="48.68603" lon="1.74288">
        <ele>156.19999694824</ele>
        <time>2014-05-29T13:55:07.000Z</time>
      </trkpt>
      <trkpt lat="48.68597" lon="1.74295">
        <ele>155.80000305176</ele>
        <time>2014-05-29T13:55:11.000Z</time>
      </trkpt>
      <trkpt lat="48.68586" lon="1.74314">
        <ele>155</ele>
        <time>2014-05-29T13:55:17.000Z</time>
      </trkpt>
      <trkpt lat="48.68578" lon="1.74332">
        <ele>154.80000305176</ele>
        <time>2014-05-29T13:55:22.000Z</time>
      </trkpt>
      <trkpt lat="48.68574" lon="1.74353">
        <ele>155</ele>
        <time>2014-05-29T13:55:27.000Z</time>
      </trkpt>
      <trkpt lat="48.68573" lon="1.7436">
        <ele>155.19999694824</ele>
        <time>2014-05-29T13:55:29.000Z</time>
      </trkpt>
      <trkpt lat="48.68568" lon="1.74381">
        <ele>154.39999389648</ele>
        <time>2014-05-29T13:55:34.000Z</time>
      </trkpt>
      <trkpt lat="48.68567" lon="1.74406">
        <ele>153.19999694824</ele>
        <time>2014-05-29T13:55:40.000Z</time>
      </trkpt>
      <trkpt lat="48.6856" lon="1.74421">
        <ele>153.60000610352</ele>
        <time>2014-05-29T13:55:47.000Z</time>
      </trkpt>
      <trkpt lat="48.68551" lon="1.74437">
        <ele>154</ele>
        <time>2014-05-29T13:55:57.000Z</time>
      </trkpt>
      <trkpt lat="48.68539" lon="1.74447">
        <ele>153.60000610352</ele>
        <time>2014-05-29T13:56:07.000Z</time>
      </trkpt>
      <trkpt lat="48.68527" lon="1.74457">
        <ele>153.39999389648</ele>
        <time>2014-05-29T13:56:12.000Z</time>
      </trkpt>
      <trkpt lat="48.68512" lon="1.74466">
        <ele>153.80000305176</ele>
        <time>2014-05-29T13:56:17.000Z</time>
      </trkpt>
      <trkpt lat="48.68491" lon="1.74477">
        <ele>153.80000305176</ele>
        <time>2014-05-29T13:56:24.000Z</time>
      </trkpt>
      <trkpt lat="48.68475" lon="1.74491">
        <ele>153.19999694824</ele>
        <time>2014-05-29T13:56:30.000Z</time>
      </trkpt>
      <trkpt lat="48.68461" lon="1.74502">
        <ele>153.60000610352</ele>
        <time>2014-05-29T13:56:35.000Z</time>
      </trkpt>
      <trkpt lat="48.68448" lon="1.74509">
        <ele>153</ele>
        <time>2014-05-29T13:56:40.000Z</time>
      </trkpt>
      <trkpt lat="48.68429" lon="1.74521">
        <ele>152.80000305176</ele>
        <time>2014-05-29T13:56:48.000Z</time>
      </trkpt>
      <trkpt lat="48.68412" lon="1.74536">
        <ele>154.80000305176</ele>
        <time>2014-05-29T13:56:55.000Z</time>
      </trkpt>
      <trkpt lat="48.68401" lon="1.74544">
        <ele>155.19999694824</ele>
        <time>2014-05-29T13:57:00.000Z</time>
      </trkpt>
      <trkpt lat="48.68401" lon="1.74546">
        <ele>155.19999694824</ele>
        <time>2014-05-29T13:57:01.000Z</time>
      </trkpt>
      <trkpt lat="48.68393" lon="1.74555">
        <ele>154.80000305176</ele>
        <time>2014-05-29T13:57:07.000Z</time>
      </trkpt>
      <trkpt lat="48.68391" lon="1.74556">
        <ele>154.80000305176</ele>
        <time>2014-05-29T13:57:08.000Z</time>
      </trkpt>
      <trkpt lat="48.68387" lon="1.74566">
        <ele>154.19999694824</ele>
        <time>2014-05-29T13:57:15.000Z</time>
      </trkpt>
      <trkpt lat="48.68387" lon="1.74567">
        <ele>154.19999694824</ele>
        <time>2014-05-29T13:57:18.000Z</time>
      </trkpt>
      <trkpt lat="48.68383" lon="1.74576">
        <ele>154.39999389648</ele>
        <time>2014-05-29T13:57:29.000Z</time>
      </trkpt>
      <trkpt lat="48.68374" lon="1.74588">
        <ele>155</ele>
        <time>2014-05-29T13:57:36.000Z</time>
      </trkpt>
      <trkpt lat="48.68365" lon="1.74601">
        <ele>154.60000610352</ele>
        <time>2014-05-29T13:57:45.000Z</time>
      </trkpt>
      <trkpt lat="48.68361" lon="1.74612">
        <ele>154</ele>
        <time>2014-05-29T13:57:51.000Z</time>
      </trkpt>
      <trkpt lat="48.68357" lon="1.74623">
        <ele>153.60000610352</ele>
        <time>2014-05-29T13:57:58.000Z</time>
      </trkpt>
      <trkpt lat="48.68356" lon="1.74625">
        <ele>153.60000610352</ele>
        <time>2014-05-29T13:57:59.000Z</time>
      </trkpt>
      <trkpt lat="48.6835" lon="1.74639">
        <ele>153.60000610352</ele>
        <time>2014-05-29T13:58:07.000Z</time>
      </trkpt>
      <trkpt lat="48.68342" lon="1.74651">
        <ele>154</ele>
        <time>2014-05-29T13:58:14.000Z</time>
      </trkpt>
      <trkpt lat="48.68338" lon="1.74656">
        <ele>154.19999694824</ele>
        <time>2014-05-29T13:58:17.000Z</time>
      </trkpt>
      <trkpt lat="48.68334" lon="1.74668">
        <ele>155</ele>
        <time>2014-05-29T13:58:23.000Z</time>
      </trkpt>
      <trkpt lat="48.68331" lon="1.74676">
        <ele>155.39999389648</ele>
        <time>2014-05-29T13:58:27.000Z</time>
      </trkpt>
      <trkpt lat="48.68324" lon="1.74693">
        <ele>156.60000610352</ele>
        <time>2014-05-29T13:58:36.000Z</time>
      </trkpt>
      <trkpt lat="48.6832" lon="1.74702">
        <ele>157.19999694824</ele>
        <time>2014-05-29T13:58:42.000Z</time>
      </trkpt>
      <trkpt lat="48.68318" lon="1.74705">
        <ele>157.19999694824</ele>
        <time>2014-05-29T13:58:44.000Z</time>
      </trkpt>
      <trkpt lat="48.68315" lon="1.74714">
        <ele>156.60000610352</ele>
        <time>2014-05-29T13:58:50.000Z</time>
      </trkpt>
      <trkpt lat="48.68315" lon="1.74715">
        <ele>156.39999389648</ele>
        <time>2014-05-29T13:58:51.000Z</time>
      </trkpt>
      <trkpt lat="48.6831" lon="1.74724">
        <ele>155.80000305176</ele>
        <time>2014-05-29T13:58:57.000Z</time>
      </trkpt>
      <trkpt lat="48.68301" lon="1.74737">
        <ele>154.80000305176</ele>
        <time>2014-05-29T13:59:05.000Z</time>
      </trkpt>
      <trkpt lat="48.68294" lon="1.74745">
        <ele>155</ele>
        <time>2014-05-29T13:59:10.000Z</time>
      </trkpt>
      <trkpt lat="48.68287" lon="1.74755">
        <ele>155.19999694824</ele>
        <time>2014-05-29T13:59:16.000Z</time>
      </trkpt>
      <trkpt lat="48.68282" lon="1.74764">
        <ele>154.60000610352</ele>
        <time>2014-05-29T13:59:22.000Z</time>
      </trkpt>
      <trkpt lat="48.68279" lon="1.74776">
        <ele>154</ele>
        <time>2014-05-29T13:59:27.000Z</time>
      </trkpt>
      <trkpt lat="48.68273" lon="1.74783">
        <ele>153.19999694824</ele>
        <time>2014-05-29T13:59:32.000Z</time>
      </trkpt>
      <trkpt lat="48.68267" lon="1.748">
        <ele>152.80000305176</ele>
        <time>2014-05-29T13:59:41.000Z</time>
      </trkpt>
      <trkpt lat="48.68265" lon="1.74803">
        <ele>152.80000305176</ele>
        <time>2014-05-29T13:59:43.000Z</time>
      </trkpt>
      <trkpt lat="48.68258" lon="1.74818">
        <ele>152.80000305176</ele>
        <time>2014-05-29T13:59:52.000Z</time>
      </trkpt>
      <trkpt lat="48.68254" lon="1.7483">
        <ele>153</ele>
        <time>2014-05-29T13:59:58.000Z</time>
      </trkpt>
      <trkpt lat="48.6825" lon="1.7484">
        <ele>153.19999694824</ele>
        <time>2014-05-29T14:00:05.000Z</time>
      </trkpt>
      <trkpt lat="48.68245" lon="1.74853">
        <ele>153.60000610352</ele>
        <time>2014-05-29T14:00:13.000Z</time>
      </trkpt>
      <trkpt lat="48.68242" lon="1.74859">
        <ele>153.60000610352</ele>
        <time>2014-05-29T14:00:17.000Z</time>
      </trkpt>
      <trkpt lat="48.68239" lon="1.74869">
        <ele>153.80000305176</ele>
        <time>2014-05-29T14:00:22.000Z</time>
      </trkpt>
      <trkpt lat="48.68237" lon="1.74876">
        <ele>153.60000610352</ele>
        <time>2014-05-29T14:00:25.000Z</time>
      </trkpt>
      <trkpt lat="48.68231" lon="1.74888">
        <ele>152.80000305176</ele>
        <time>2014-05-29T14:00:31.000Z</time>
      </trkpt>
      <trkpt lat="48.68225" lon="1.74906">
        <ele>151.60000610352</ele>
        <time>2014-05-29T14:00:39.000Z</time>
      </trkpt>
      <trkpt lat="48.6822" lon="1.74918">
        <ele>152.19999694824</ele>
        <time>2014-05-29T14:00:46.000Z</time>
      </trkpt>
      <trkpt lat="48.68215" lon="1.74935">
        <ele>153</ele>
        <time>2014-05-29T14:00:53.000Z</time>
      </trkpt>
      <trkpt lat="48.68213" lon="1.74945">
        <ele>152.80000305176</ele>
        <time>2014-05-29T14:00:59.000Z</time>
      </trkpt>
      <trkpt lat="48.68208" lon="1.74961">
        <ele>152.19999694824</ele>
        <time>2014-05-29T14:01:06.000Z</time>
      </trkpt>
      <trkpt lat="48.68206" lon="1.7497">
        <ele>151.80000305176</ele>
        <time>2014-05-29T14:01:10.000Z</time>
      </trkpt>
      <trkpt lat="48.68207" lon="1.74983">
        <ele>151.80000305176</ele>
        <time>2014-05-29T14:01:17.000Z</time>
      </trkpt>
      <trkpt lat="48.68207" lon="1.74993">
        <ele>152</ele>
        <time>2014-05-29T14:01:22.000Z</time>
      </trkpt>
      <trkpt lat="48.68206" lon="1.74998">
        <ele>152.19999694824</ele>
        <time>2014-05-29T14:01:24.000Z</time>
      </trkpt>
      <trkpt lat="48.68205" lon="1.75006">
        <ele>152.60000610352</ele>
        <time>2014-05-29T14:01:28.000Z</time>
      </trkpt>
      <trkpt lat="48.68201" lon="1.75017">
        <ele>152.39999389648</ele>
        <time>2014-05-29T14:01:34.000Z</time>
      </trkpt>
      <trkpt lat="48.68197" lon="1.75027">
        <ele>151.80000305176</ele>
        <time>2014-05-29T14:01:40.000Z</time>
      </trkpt>
      <trkpt lat="48.68189" lon="1.75042">
        <ele>151</ele>
        <time>2014-05-29T14:01:49.000Z</time>
      </trkpt>
      <trkpt lat="48.68186" lon="1.75055">
        <ele>150.80000305176</ele>
        <time>2014-05-29T14:01:56.000Z</time>
      </trkpt>
      <trkpt lat="48.68183" lon="1.75063">
        <ele>150.80000305176</ele>
        <time>2014-05-29T14:02:01.000Z</time>
      </trkpt>
      <trkpt lat="48.68178" lon="1.75076">
        <ele>150.80000305176</ele>
        <time>2014-05-29T14:02:08.000Z</time>
      </trkpt>
      <trkpt lat="48.68173" lon="1.7509">
        <ele>151.39999389648</ele>
        <time>2014-05-29T14:02:15.000Z</time>
      </trkpt>
      <trkpt lat="48.68169" lon="1.75095">
        <ele>151.39999389648</ele>
        <time>2014-05-29T14:02:20.000Z</time>
      </trkpt>
      <trkpt lat="48.68166" lon="1.75099">
        <ele>151.39999389648</ele>
        <time>2014-05-29T14:02:29.000Z</time>
      </trkpt>
      <trkpt lat="48.68158" lon="1.75106">
        <ele>151.39999389648</ele>
        <time>2014-05-29T14:02:36.000Z</time>
      </trkpt>
      <trkpt lat="48.6815" lon="1.75114">
        <ele>151.39999389648</ele>
        <time>2014-05-29T14:02:41.000Z</time>
      </trkpt>
      <trkpt lat="48.68141" lon="1.75131">
        <ele>151</ele>
        <time>2014-05-29T14:02:49.000Z</time>
      </trkpt>
      <trkpt lat="48.68135" lon="1.75147">
        <ele>151</ele>
        <time>2014-05-29T14:02:57.000Z</time>
      </trkpt>
      <trkpt lat="48.68129" lon="1.75157">
        <ele>150.39999389648</ele>
        <time>2014-05-29T14:03:04.000Z</time>
      </trkpt>
      <trkpt lat="48.6812" lon="1.75171">
        <ele>149.60000610352</ele>
        <time>2014-05-29T14:03:14.000Z</time>
      </trkpt>
      <trkpt lat="48.68112" lon="1.75183">
        <ele>149.60000610352</ele>
        <time>2014-05-29T14:03:22.000Z</time>
      </trkpt>
      <trkpt lat="48.68105" lon="1.75198">
        <ele>149.60000610352</ele>
        <time>2014-05-29T14:03:31.000Z</time>
      </trkpt>
      <trkpt lat="48.68094" lon="1.75212">
        <ele>150</ele>
        <time>2014-05-29T14:03:41.000Z</time>
      </trkpt>
      <trkpt lat="48.68087" lon="1.75224">
        <ele>150.19999694824</ele>
        <time>2014-05-29T14:03:49.000Z</time>
      </trkpt>
      <trkpt lat="48.68081" lon="1.7524">
        <ele>150</ele>
        <time>2014-05-29T14:03:59.000Z</time>
      </trkpt>
      <trkpt lat="48.68079" lon="1.75252">
        <ele>149.80000305176</ele>
        <time>2014-05-29T14:04:06.000Z</time>
      </trkpt>
      <trkpt lat="48.68076" lon="1.75261">
        <ele>149.60000610352</ele>
        <time>2014-05-29T14:04:11.000Z</time>
      </trkpt>
      <trkpt lat="48.68075" lon="1.75277">
        <ele>149.60000610352</ele>
        <time>2014-05-29T14:04:19.000Z</time>
      </trkpt>
      <trkpt lat="48.68074" lon="1.75295">
        <ele>149.60000610352</ele>
        <time>2014-05-29T14:04:27.000Z</time>
      </trkpt>
      <trkpt lat="48.68071" lon="1.75315">
        <ele>149.80000305176</ele>
        <time>2014-05-29T14:04:36.000Z</time>
      </trkpt>
      <trkpt lat="48.68069" lon="1.75335">
        <ele>149.60000610352</ele>
        <time>2014-05-29T14:04:46.000Z</time>
      </trkpt>
      <trkpt lat="48.68067" lon="1.75346">
        <ele>149.39999389648</ele>
        <time>2014-05-29T14:04:52.000Z</time>
      </trkpt>
      <trkpt lat="48.68067" lon="1.75364">
        <ele>149.19999694824</ele>
        <time>2014-05-29T14:05:01.000Z</time>
      </trkpt>
      <trkpt lat="48.68065" lon="1.75382">
        <ele>149</ele>
        <time>2014-05-29T14:05:10.000Z</time>
      </trkpt>
      <trkpt lat="48.68061" lon="1.75398">
        <ele>149</ele>
        <time>2014-05-29T14:05:19.000Z</time>
      </trkpt>
      <trkpt lat="48.68058" lon="1.75414">
        <ele>149</ele>
        <time>2014-05-29T14:05:27.000Z</time>
      </trkpt>
      <trkpt lat="48.68055" lon="1.75435">
        <ele>148.80000305176</ele>
        <time>2014-05-29T14:05:37.000Z</time>
      </trkpt>
      <trkpt lat="48.68053" lon="1.75451">
        <ele>148.39999389648</ele>
        <time>2014-05-29T14:05:45.000Z</time>
      </trkpt>
      <trkpt lat="48.68051" lon="1.75466">
        <ele>148</ele>
        <time>2014-05-29T14:05:52.000Z</time>
      </trkpt>
      <trkpt lat="48.6805" lon="1.75476">
        <ele>147.80000305176</ele>
        <time>2014-05-29T14:05:58.000Z</time>
      </trkpt>
      <trkpt lat="48.6805" lon="1.75479">
        <ele>147.60000610352</ele>
        <time>2014-05-29T14:05:59.000Z</time>
      </trkpt>
      <trkpt lat="48.68048" lon="1.75489">
        <ele>147.39999389648</ele>
        <time>2014-05-29T14:06:04.000Z</time>
      </trkpt>
      <trkpt lat="48.68046" lon="1.75508">
        <ele>147.19999694824</ele>
        <time>2014-05-29T14:06:13.000Z</time>
      </trkpt>
      <trkpt lat="48.68053" lon="1.75518">
        <ele>147.60000610352</ele>
        <time>2014-05-29T14:06:20.000Z</time>
      </trkpt>
      <trkpt lat="48.68061" lon="1.75523">
        <ele>148</ele>
        <time>2014-05-29T14:06:26.000Z</time>
      </trkpt>
      <trkpt lat="48.6807" lon="1.75528">
        <ele>148.39999389648</ele>
        <time>2014-05-29T14:06:32.000Z</time>
      </trkpt>
      <trkpt lat="48.6808" lon="1.75537">
        <ele>148.80000305176</ele>
        <time>2014-05-29T14:06:40.000Z</time>
      </trkpt>
      <trkpt lat="48.68089" lon="1.75541">
        <ele>149.39999389648</ele>
        <time>2014-05-29T14:06:47.000Z</time>
      </trkpt>
      <trkpt lat="48.68101" lon="1.7555">
        <ele>150</ele>
        <time>2014-05-29T14:06:56.000Z</time>
      </trkpt>
      <trkpt lat="48.68113" lon="1.75562">
        <ele>150.19999694824</ele>
        <time>2014-05-29T14:07:06.000Z</time>
      </trkpt>
      <trkpt lat="48.68117" lon="1.75566">
        <ele>150.39999389648</ele>
        <time>2014-05-29T14:07:12.000Z</time>
      </trkpt>
      <trkpt lat="48.68123" lon="1.75571">
        <ele>150.39999389648</ele>
        <time>2014-05-29T14:07:29.000Z</time>
      </trkpt>
      <trkpt lat="48.68135" lon="1.75581">
        <ele>150.80000305176</ele>
        <time>2014-05-29T14:07:38.000Z</time>
      </trkpt>
      <trkpt lat="48.68147" lon="1.75588">
        <ele>151</ele>
        <time>2014-05-29T14:07:48.000Z</time>
      </trkpt>
      <trkpt lat="48.6816" lon="1.75594">
        <ele>151.39999389648</ele>
        <time>2014-05-29T14:07:58.000Z</time>
      </trkpt>
      <trkpt lat="48.68173" lon="1.75601">
        <ele>151.60000610352</ele>
        <time>2014-05-29T14:08:08.000Z</time>
      </trkpt>
      <trkpt lat="48.68183" lon="1.75604">
        <ele>152</ele>
        <time>2014-05-29T14:08:16.000Z</time>
      </trkpt>
      <trkpt lat="48.68188" lon="1.75607">
        <ele>152</ele>
        <time>2014-05-29T14:08:22.000Z</time>
      </trkpt>
      <trkpt lat="48.682" lon="1.75612">
        <ele>152.19999694824</ele>
        <time>2014-05-29T14:08:30.000Z</time>
      </trkpt>
      <trkpt lat="48.68207" lon="1.75615">
        <ele>152.19999694824</ele>
        <time>2014-05-29T14:08:35.000Z</time>
      </trkpt>
      <trkpt lat="48.6822" lon="1.75618">
        <ele>152.39999389648</ele>
        <time>2014-05-29T14:08:44.000Z</time>
      </trkpt>
      <trkpt lat="48.68232" lon="1.75622">
        <ele>152.60000610352</ele>
        <time>2014-05-29T14:08:52.000Z</time>
      </trkpt>
      <trkpt lat="48.68245" lon="1.75625">
        <ele>152.80000305176</ele>
        <time>2014-05-29T14:09:01.000Z</time>
      </trkpt>
      <trkpt lat="48.68256" lon="1.7563">
        <ele>152.80000305176</ele>
        <time>2014-05-29T14:09:09.000Z</time>
      </trkpt>
      <trkpt lat="48.68264" lon="1.75632">
        <ele>153</ele>
        <time>2014-05-29T14:09:16.000Z</time>
      </trkpt>
      <trkpt lat="48.6827" lon="1.75635">
        <ele>153</ele>
        <time>2014-05-29T14:09:21.000Z</time>
      </trkpt>
      <trkpt lat="48.68278" lon="1.75638">
        <ele>152.80000305176</ele>
        <time>2014-05-29T14:09:26.000Z</time>
      </trkpt>
      <trkpt lat="48.68284" lon="1.75639">
        <ele>152.80000305176</ele>
        <time>2014-05-29T14:09:30.000Z</time>
      </trkpt>
      <trkpt lat="48.68299" lon="1.75643">
        <ele>152.60000610352</ele>
        <time>2014-05-29T14:09:40.000Z</time>
      </trkpt>
      <trkpt lat="48.68309" lon="1.75645">
        <ele>152.60000610352</ele>
        <time>2014-05-29T14:09:46.000Z</time>
      </trkpt>
      <trkpt lat="48.68321" lon="1.75641">
        <ele>152.39999389648</ele>
        <time>2014-05-29T14:09:54.000Z</time>
      </trkpt>
      <trkpt lat="48.68334" lon="1.75637">
        <ele>152.19999694824</ele>
        <time>2014-05-29T14:10:03.000Z</time>
      </trkpt>
      <trkpt lat="48.68345" lon="1.7563">
        <ele>152.19999694824</ele>
        <time>2014-05-29T14:10:11.000Z</time>
      </trkpt>
      <trkpt lat="48.68351" lon="1.75625">
        <ele>152.39999389648</ele>
        <time>2014-05-29T14:10:17.000Z</time>
      </trkpt>
      <trkpt lat="48.68354" lon="1.7562">
        <ele>152.39999389648</ele>
        <time>2014-05-29T14:10:23.000Z</time>
      </trkpt>
      <trkpt lat="48.68354" lon="1.7562">
        <ele>152.39999389648</ele>
        <time>2014-05-29T14:10:24.000Z</time>
      </trkpt>
      <trkpt lat="48.68356" lon="1.75618">
        <ele>152.39999389648</ele>
        <time>2014-05-29T14:10:27.000Z</time>
      </trkpt>
      <trkpt lat="48.68361" lon="1.75615">
        <ele>152.60000610352</ele>
        <time>2014-05-29T14:10:30.000Z</time>
      </trkpt>
      <trkpt lat="48.68367" lon="1.75611">
        <ele>152.80000305176</ele>
        <time>2014-05-29T14:10:38.000Z</time>
      </trkpt>
      <trkpt lat="48.68376" lon="1.75601">
        <ele>153.19999694824</ele>
        <time>2014-05-29T14:10:59.000Z</time>
      </trkpt>
      <trkpt lat="48.68379" lon="1.75602">
        <ele>153.19999694824</ele>
        <time>2014-05-29T14:11:03.000Z</time>
      </trkpt>
      <trkpt lat="48.68386" lon="1.75598">
        <ele>153.39999389648</ele>
        <time>2014-05-29T14:11:09.000Z</time>
      </trkpt>
      <trkpt lat="48.68393" lon="1.75593">
        <ele>153.60000610352</ele>
        <time>2014-05-29T14:11:15.000Z</time>
      </trkpt>
      <trkpt lat="48.68401" lon="1.75589">
        <ele>154</ele>
        <time>2014-05-29T14:11:21.000Z</time>
      </trkpt>
      <trkpt lat="48.68408" lon="1.75587">
        <ele>154.19999694824</ele>
        <time>2014-05-29T14:11:27.000Z</time>
      </trkpt>
      <trkpt lat="48.68421" lon="1.7558">
        <ele>154.60000610352</ele>
        <time>2014-05-29T14:11:35.000Z</time>
      </trkpt>
      <trkpt lat="48.68431" lon="1.75574">
        <ele>154.80000305176</ele>
        <time>2014-05-29T14:11:42.000Z</time>
      </trkpt>
      <trkpt lat="48.6844" lon="1.75572">
        <ele>155</ele>
        <time>2014-05-29T14:11:48.000Z</time>
      </trkpt>
      <trkpt lat="48.68448" lon="1.75568">
        <ele>155.19999694824</ele>
        <time>2014-05-29T14:11:54.000Z</time>
      </trkpt>
      <trkpt lat="48.68452" lon="1.75567">
        <ele>155.19999694824</ele>
        <time>2014-05-29T14:11:58.000Z</time>
      </trkpt>
      <trkpt lat="48.68456" lon="1.75564">
        <ele>155.60000610352</ele>
        <time>2014-05-29T14:12:02.000Z</time>
      </trkpt>
      <trkpt lat="48.68466" lon="1.75557">
        <ele>156</ele>
        <time>2014-05-29T14:12:10.000Z</time>
      </trkpt>
      <trkpt lat="48.68474" lon="1.75553">
        <ele>156.19999694824</ele>
        <time>2014-05-29T14:12:16.000Z</time>
      </trkpt>
      <trkpt lat="48.68475" lon="1.75552">
        <ele>156.39999389648</ele>
        <time>2014-05-29T14:12:17.000Z</time>
      </trkpt>
      <trkpt lat="48.68483" lon="1.75548">
        <ele>156.60000610352</ele>
        <time>2014-05-29T14:12:23.000Z</time>
      </trkpt>
      <trkpt lat="48.68489" lon="1.75546">
        <ele>156.80000305176</ele>
        <time>2014-05-29T14:12:27.000Z</time>
      </trkpt>
      <trkpt lat="48.685" lon="1.75544">
        <ele>156.80000305176</ele>
        <time>2014-05-29T14:12:35.000Z</time>
      </trkpt>
      <trkpt lat="48.68503" lon="1.75541">
        <ele>156.80000305176</ele>
        <time>2014-05-29T14:12:37.000Z</time>
      </trkpt>
      <trkpt lat="48.68513" lon="1.75536">
        <ele>156.80000305176</ele>
        <time>2014-05-29T14:12:44.000Z</time>
      </trkpt>
      <trkpt lat="48.68517" lon="1.75534">
        <ele>156.80000305176</ele>
        <time>2014-05-29T14:12:48.000Z</time>
      </trkpt>
      <trkpt lat="48.68525" lon="1.7553">
        <ele>157.19999694824</ele>
        <time>2014-05-29T14:12:53.000Z</time>
      </trkpt>
      <trkpt lat="48.68534" lon="1.75525">
        <ele>158</ele>
        <time>2014-05-29T14:13:00.000Z</time>
      </trkpt>
      <trkpt lat="48.68543" lon="1.7552">
        <ele>158.60000610352</ele>
        <time>2014-05-29T14:13:06.000Z</time>
      </trkpt>
      <trkpt lat="48.68546" lon="1.75519">
        <ele>158.80000305176</ele>
        <time>2014-05-29T14:13:09.000Z</time>
      </trkpt>
      <trkpt lat="48.68556" lon="1.75515">
        <ele>159</ele>
        <time>2014-05-29T14:13:16.000Z</time>
      </trkpt>
      <trkpt lat="48.68561" lon="1.75512">
        <ele>159</ele>
        <time>2014-05-29T14:13:21.000Z</time>
      </trkpt>
      <trkpt lat="48.68571" lon="1.75505">
        <ele>159</ele>
        <time>2014-05-29T14:13:29.000Z</time>
      </trkpt>
      <trkpt lat="48.68576" lon="1.75499">
        <ele>159</ele>
        <time>2014-05-29T14:13:35.000Z</time>
      </trkpt>
      <trkpt lat="48.68586" lon="1.75496">
        <ele>159</ele>
        <time>2014-05-29T14:13:39.000Z</time>
      </trkpt>
      <trkpt lat="48.68594" lon="1.75494">
        <ele>159</ele>
        <time>2014-05-29T14:13:44.000Z</time>
      </trkpt>
      <trkpt lat="48.68602" lon="1.75489">
        <ele>159</ele>
        <time>2014-05-29T14:13:50.000Z</time>
      </trkpt>
      <trkpt lat="48.68615" lon="1.75479">
        <ele>159.19999694824</ele>
        <time>2014-05-29T14:13:59.000Z</time>
      </trkpt>
      <trkpt lat="48.68627" lon="1.75473">
        <ele>159.39999389648</ele>
        <time>2014-05-29T14:14:06.000Z</time>
      </trkpt>
      <trkpt lat="48.6864" lon="1.75467">
        <ele>159.60000610352</ele>
        <time>2014-05-29T14:14:12.000Z</time>
      </trkpt>
      <trkpt lat="48.68652" lon="1.75461">
        <ele>160</ele>
        <time>2014-05-29T14:14:20.000Z</time>
      </trkpt>
      <trkpt lat="48.6866" lon="1.75457">
        <ele>159.80000305176</ele>
        <time>2014-05-29T14:14:26.000Z</time>
      </trkpt>
      <trkpt lat="48.68668" lon="1.75456">
        <ele>159.60000610352</ele>
        <time>2014-05-29T14:14:32.000Z</time>
      </trkpt>
      <trkpt lat="48.6868" lon="1.75449">
        <ele>158.80000305176</ele>
        <time>2014-05-29T14:14:41.000Z</time>
      </trkpt>
      <trkpt lat="48.6869" lon="1.75442">
        <ele>158.19999694824</ele>
        <time>2014-05-29T14:14:48.000Z</time>
      </trkpt>
      <trkpt lat="48.68697" lon="1.75437">
        <ele>158</ele>
        <time>2014-05-29T14:14:53.000Z</time>
      </trkpt>
      <trkpt lat="48.68703" lon="1.75434">
        <ele>157.80000305176</ele>
        <time>2014-05-29T14:14:58.000Z</time>
      </trkpt>
      <trkpt lat="48.68712" lon="1.75429">
        <ele>157.60000610352</ele>
        <time>2014-05-29T14:15:05.000Z</time>
      </trkpt>
      <trkpt lat="48.68717" lon="1.75427">
        <ele>157.60000610352</ele>
        <time>2014-05-29T14:15:09.000Z</time>
      </trkpt>
      <trkpt lat="48.68727" lon="1.75421">
        <ele>157.39999389648</ele>
        <time>2014-05-29T14:15:17.000Z</time>
      </trkpt>
      <trkpt lat="48.68738" lon="1.75417">
        <ele>157.39999389648</ele>
        <time>2014-05-29T14:15:25.000Z</time>
      </trkpt>
      <trkpt lat="48.68743" lon="1.75414">
        <ele>157.19999694824</ele>
        <time>2014-05-29T14:15:31.000Z</time>
      </trkpt>
      <trkpt lat="48.68751" lon="1.75411">
        <ele>157.19999694824</ele>
        <time>2014-05-29T14:15:36.000Z</time>
      </trkpt>
      <trkpt lat="48.6876" lon="1.75408">
        <ele>157</ele>
        <time>2014-05-29T14:15:42.000Z</time>
      </trkpt>
      <trkpt lat="48.6877" lon="1.75399">
        <ele>156.80000305176</ele>
        <time>2014-05-29T14:15:49.000Z</time>
      </trkpt>
      <trkpt lat="48.68779" lon="1.7539">
        <ele>156.80000305176</ele>
        <time>2014-05-29T14:15:56.000Z</time>
      </trkpt>
      <trkpt lat="48.68788" lon="1.75385">
        <ele>156.80000305176</ele>
        <time>2014-05-29T14:16:02.000Z</time>
      </trkpt>
      <trkpt lat="48.68799" lon="1.7538">
        <ele>156.80000305176</ele>
        <time>2014-05-29T14:16:08.000Z</time>
      </trkpt>
      <trkpt lat="48.68808" lon="1.75376">
        <ele>156.80000305176</ele>
        <time>2014-05-29T14:16:15.000Z</time>
      </trkpt>
      <trkpt lat="48.68817" lon="1.75371">
        <ele>156.80000305176</ele>
        <time>2014-05-29T14:16:21.000Z</time>
      </trkpt>
      <trkpt lat="48.68827" lon="1.75365">
        <ele>156.60000610352</ele>
        <time>2014-05-29T14:16:28.000Z</time>
      </trkpt>
      <trkpt lat="48.68836" lon="1.7536">
        <ele>156.39999389648</ele>
        <time>2014-05-29T14:16:35.000Z</time>
      </trkpt>
      <trkpt lat="48.68849" lon="1.75354">
        <ele>156.19999694824</ele>
        <time>2014-05-29T14:16:46.000Z</time>
      </trkpt>
      <trkpt lat="48.68857" lon="1.7535">
        <ele>156</ele>
        <time>2014-05-29T14:16:52.000Z</time>
      </trkpt>
      <trkpt lat="48.68865" lon="1.75345">
        <ele>155.80000305176</ele>
        <time>2014-05-29T14:16:58.000Z</time>
      </trkpt>
      <trkpt lat="48.68866" lon="1.75344">
        <ele>155.60000610352</ele>
        <time>2014-05-29T14:16:59.000Z</time>
      </trkpt>
      <trkpt lat="48.68872" lon="1.75339">
        <ele>155.39999389648</ele>
        <time>2014-05-29T14:17:04.000Z</time>
      </trkpt>
      <trkpt lat="48.68884" lon="1.75333">
        <ele>155</ele>
        <time>2014-05-29T14:17:11.000Z</time>
      </trkpt>
      <trkpt lat="48.68893" lon="1.75326">
        <ele>154.80000305176</ele>
        <time>2014-05-29T14:17:18.000Z</time>
      </trkpt>
      <trkpt lat="48.689" lon="1.75323">
        <ele>154.60000610352</ele>
        <time>2014-05-29T14:17:23.000Z</time>
      </trkpt>
      <trkpt lat="48.68907" lon="1.75319">
        <ele>154.39999389648</ele>
        <time>2014-05-29T14:17:27.000Z</time>
      </trkpt>
      <trkpt lat="48.68911" lon="1.75318">
        <ele>154.19999694824</ele>
        <time>2014-05-29T14:17:29.000Z</time>
      </trkpt>
      <trkpt lat="48.68918" lon="1.75314">
        <ele>154.19999694824</ele>
        <time>2014-05-29T14:17:34.000Z</time>
      </trkpt>
      <trkpt lat="48.6893" lon="1.75308">
        <ele>154</ele>
        <time>2014-05-29T14:17:41.000Z</time>
      </trkpt>
      <trkpt lat="48.6894" lon="1.75303">
        <ele>154</ele>
        <time>2014-05-29T14:17:49.000Z</time>
      </trkpt>
      <trkpt lat="48.68944" lon="1.75301">
        <ele>154</ele>
        <time>2014-05-29T14:17:52.000Z</time>
      </trkpt>
      <trkpt lat="48.68954" lon="1.75301">
        <ele>154.39999389648</ele>
        <time>2014-05-29T14:17:58.000Z</time>
      </trkpt>
      <trkpt lat="48.68957" lon="1.753">
        <ele>154.39999389648</ele>
        <time>2014-05-29T14:18:02.000Z</time>
      </trkpt>
      <trkpt lat="48.68958" lon="1.75299">
        <ele>154.60000610352</ele>
        <time>2014-05-29T14:18:07.000Z</time>
      </trkpt>
      <trkpt lat="48.68966" lon="1.75302">
        <ele>154.80000305176</ele>
        <time>2014-05-29T14:18:19.000Z</time>
      </trkpt>
      <trkpt lat="48.68974" lon="1.75312">
        <ele>155.19999694824</ele>
        <time>2014-05-29T14:18:25.000Z</time>
      </trkpt>
      <trkpt lat="48.68978" lon="1.75319">
        <ele>155.39999389648</ele>
        <time>2014-05-29T14:18:29.000Z</time>
      </trkpt>
      <trkpt lat="48.68986" lon="1.75332">
        <ele>156</ele>
        <time>2014-05-29T14:18:37.000Z</time>
      </trkpt>
      <trkpt lat="48.68998" lon="1.75351">
        <ele>156.60000610352</ele>
        <time>2014-05-29T14:18:43.000Z</time>
      </trkpt>
      <trkpt lat="48.69013" lon="1.75374">
        <ele>157.39999389648</ele>
        <time>2014-05-29T14:18:49.000Z</time>
      </trkpt>
      <trkpt lat="48.69028" lon="1.75399">
        <ele>157.80000305176</ele>
        <time>2014-05-29T14:18:55.000Z</time>
      </trkpt>
      <trkpt lat="48.6904" lon="1.7542">
        <ele>157.80000305176</ele>
        <time>2014-05-29T14:19:00.000Z</time>
      </trkpt>
      <trkpt lat="48.69059" lon="1.75452">
        <ele>157.80000305176</ele>
        <time>2014-05-29T14:19:07.000Z</time>
      </trkpt>
      <trkpt lat="48.69075" lon="1.75478">
        <ele>158</ele>
        <time>2014-05-29T14:19:13.000Z</time>
      </trkpt>
      <trkpt lat="48.69092" lon="1.75505">
        <ele>158.39999389648</ele>
        <time>2014-05-29T14:19:19.000Z</time>
      </trkpt>
      <trkpt lat="48.69095" lon="1.7551">
        <ele>158.39999389648</ele>
        <time>2014-05-29T14:19:20.000Z</time>
      </trkpt>
      <trkpt lat="48.69106" lon="1.75528">
        <ele>158.80000305176</ele>
        <time>2014-05-29T14:19:24.000Z</time>
      </trkpt>
      <trkpt lat="48.69125" lon="1.75561">
        <ele>159.19999694824</ele>
        <time>2014-05-29T14:19:32.000Z</time>
      </trkpt>
      <trkpt lat="48.6914" lon="1.75589">
        <ele>160.19999694824</ele>
        <time>2014-05-29T14:19:38.000Z</time>
      </trkpt>
      <trkpt lat="48.69152" lon="1.7561">
        <ele>160.80000305176</ele>
        <time>2014-05-29T14:19:43.000Z</time>
      </trkpt>
      <trkpt lat="48.6917" lon="1.75634">
        <ele>161.60000610352</ele>
        <time>2014-05-29T14:19:49.000Z</time>
      </trkpt>
      <trkpt lat="48.69183" lon="1.75658">
        <ele>162.19999694824</ele>
        <time>2014-05-29T14:19:55.000Z</time>
      </trkpt>
      <trkpt lat="48.69198" lon="1.75686">
        <ele>162.60000610352</ele>
        <time>2014-05-29T14:20:02.000Z</time>
      </trkpt>
      <trkpt lat="48.6921" lon="1.75706">
        <ele>162.80000305176</ele>
        <time>2014-05-29T14:20:08.000Z</time>
      </trkpt>
      <trkpt lat="48.69221" lon="1.75726">
        <ele>163</ele>
        <time>2014-05-29T14:20:13.000Z</time>
      </trkpt>
      <trkpt lat="48.69235" lon="1.75748">
        <ele>163</ele>
        <time>2014-05-29T14:20:19.000Z</time>
      </trkpt>
      <trkpt lat="48.69246" lon="1.75765">
        <ele>163.19999694824</ele>
        <time>2014-05-29T14:20:24.000Z</time>
      </trkpt>
      <trkpt lat="48.69259" lon="1.75784">
        <ele>163.19999694824</ele>
        <time>2014-05-29T14:20:29.000Z</time>
      </trkpt>
      <trkpt lat="48.6927" lon="1.75802">
        <ele>163.39999389648</ele>
        <time>2014-05-29T14:20:34.000Z</time>
      </trkpt>
      <trkpt lat="48.6928" lon="1.75824">
        <ele>164.19999694824</ele>
        <time>2014-05-29T14:20:40.000Z</time>
      </trkpt>
      <trkpt lat="48.69285" lon="1.75836">
        <ele>164.80000305176</ele>
        <time>2014-05-29T14:20:43.000Z</time>
      </trkpt>
      <trkpt lat="48.69295" lon="1.75856">
        <ele>165.80000305176</ele>
        <time>2014-05-29T14:20:48.000Z</time>
      </trkpt>
      <trkpt lat="48.69308" lon="1.75874">
        <ele>166.80000305176</ele>
        <time>2014-05-29T14:20:53.000Z</time>
      </trkpt>
      <trkpt lat="48.69322" lon="1.75896">
        <ele>167.80000305176</ele>
        <time>2014-05-29T14:20:59.000Z</time>
      </trkpt>
      <trkpt lat="48.69332" lon="1.75914">
        <ele>169</ele>
        <time>2014-05-29T14:21:04.000Z</time>
      </trkpt>
      <trkpt lat="48.69341" lon="1.75929">
        <ele>170</ele>
        <time>2014-05-29T14:21:08.000Z</time>
      </trkpt>
      <trkpt lat="48.69356" lon="1.75949">
        <ele>171.19999694824</ele>
        <time>2014-05-29T14:21:14.000Z</time>
      </trkpt>
      <trkpt lat="48.69358" lon="1.75952">
        <ele>171.39999389648</ele>
        <time>2014-05-29T14:21:15.000Z</time>
      </trkpt>
      <trkpt lat="48.69374" lon="1.75982">
        <ele>173.60000610352</ele>
        <time>2014-05-29T14:21:23.000Z</time>
      </trkpt>
      <trkpt lat="48.69382" lon="1.75996">
        <ele>174.19999694824</ele>
        <time>2014-05-29T14:21:28.000Z</time>
      </trkpt>
      <trkpt lat="48.69388" lon="1.76007">
        <ele>174.80000305176</ele>
        <time>2014-05-29T14:21:35.000Z</time>
      </trkpt>
      <trkpt lat="48.69389" lon="1.76011">
        <ele>174.80000305176</ele>
        <time>2014-05-29T14:21:37.000Z</time>
      </trkpt>
      <trkpt lat="48.69395" lon="1.76017">
        <ele>175</ele>
        <time>2014-05-29T14:21:41.000Z</time>
      </trkpt>
      <trkpt lat="48.69397" lon="1.76024">
        <ele>175.39999389648</ele>
        <time>2014-05-29T14:21:45.000Z</time>
      </trkpt>
      <trkpt lat="48.69405" lon="1.76032">
        <ele>175.60000610352</ele>
        <time>2014-05-29T14:21:51.000Z</time>
      </trkpt>
      <trkpt lat="48.69415" lon="1.76044">
        <ele>176</ele>
        <time>2014-05-29T14:22:01.000Z</time>
      </trkpt>
      <trkpt lat="48.69423" lon="1.76053">
        <ele>176.39999389648</ele>
        <time>2014-05-29T14:22:09.000Z</time>
      </trkpt>
      <trkpt lat="48.69427" lon="1.76061">
        <ele>176.60000610352</ele>
        <time>2014-05-29T14:22:15.000Z</time>
      </trkpt>
      <trkpt lat="48.69433" lon="1.76072">
        <ele>177.19999694824</ele>
        <time>2014-05-29T14:22:22.000Z</time>
      </trkpt>
      <trkpt lat="48.69434" lon="1.76074">
        <ele>177.19999694824</ele>
        <time>2014-05-29T14:22:24.000Z</time>
      </trkpt>
      <trkpt lat="48.69439" lon="1.76088">
        <ele>178</ele>
        <time>2014-05-29T14:22:32.000Z</time>
      </trkpt>
      <trkpt lat="48.69446" lon="1.76098">
        <ele>178.80000305176</ele>
        <time>2014-05-29T14:22:38.000Z</time>
      </trkpt>
      <trkpt lat="48.69449" lon="1.76105">
        <ele>179.19999694824</ele>
        <time>2014-05-29T14:22:43.000Z</time>
      </trkpt>
      <trkpt lat="48.69457" lon="1.76118">
        <ele>180</ele>
        <time>2014-05-29T14:22:52.000Z</time>
      </trkpt>
      <trkpt lat="48.69459" lon="1.76119">
        <ele>180.19999694824</ele>
        <time>2014-05-29T14:22:53.000Z</time>
      </trkpt>
      <trkpt lat="48.69464" lon="1.7613">
        <ele>180.80000305176</ele>
        <time>2014-05-29T14:23:01.000Z</time>
      </trkpt>
      <trkpt lat="48.69473" lon="1.7614">
        <ele>181.60000610352</ele>
        <time>2014-05-29T14:23:08.000Z</time>
      </trkpt>
      <trkpt lat="48.69475" lon="1.76142">
        <ele>181.80000305176</ele>
        <time>2014-05-29T14:23:10.000Z</time>
      </trkpt>
      <trkpt lat="48.69482" lon="1.76156">
        <ele>182.60000610352</ele>
        <time>2014-05-29T14:23:18.000Z</time>
      </trkpt>
      <trkpt lat="48.6949" lon="1.76167">
        <ele>182.80000305176</ele>
        <time>2014-05-29T14:23:25.000Z</time>
      </trkpt>
      <trkpt lat="48.69494" lon="1.76174">
        <ele>183</ele>
        <time>2014-05-29T14:23:30.000Z</time>
      </trkpt>
      <trkpt lat="48.69497" lon="1.76182">
        <ele>183</ele>
        <time>2014-05-29T14:23:35.000Z</time>
      </trkpt>
      <trkpt lat="48.69498" lon="1.76185">
        <ele>183.19999694824</ele>
        <time>2014-05-29T14:23:37.000Z</time>
      </trkpt>
      <trkpt lat="48.69499" lon="1.7619">
        <ele>183.19999694824</ele>
        <time>2014-05-29T14:23:40.000Z</time>
      </trkpt>
      <trkpt lat="48.69501" lon="1.76195">
        <ele>183.19999694824</ele>
        <time>2014-05-29T14:23:44.000Z</time>
      </trkpt>
      <trkpt lat="48.69511" lon="1.76205">
        <ele>183.60000610352</ele>
        <time>2014-05-29T14:23:51.000Z</time>
      </trkpt>
      <trkpt lat="48.69518" lon="1.76213">
        <ele>183.60000610352</ele>
        <time>2014-05-29T14:23:56.000Z</time>
      </trkpt>
      <trkpt lat="48.69523" lon="1.7622">
        <ele>183.80000305176</ele>
        <time>2014-05-29T14:24:00.000Z</time>
      </trkpt>
      <trkpt lat="48.6953" lon="1.7623">
        <ele>184</ele>
        <time>2014-05-29T14:24:07.000Z</time>
      </trkpt>
      <trkpt lat="48.69532" lon="1.76232">
        <ele>184</ele>
        <time>2014-05-29T14:24:09.000Z</time>
      </trkpt>
      <trkpt lat="48.69536" lon="1.76244">
        <ele>184</ele>
        <time>2014-05-29T14:24:16.000Z</time>
      </trkpt>
      <trkpt lat="48.69541" lon="1.76255">
        <ele>183.80000305176</ele>
        <time>2014-05-29T14:24:22.000Z</time>
      </trkpt>
      <trkpt lat="48.69548" lon="1.76267">
        <ele>183.60000610352</ele>
        <time>2014-05-29T14:24:29.000Z</time>
      </trkpt>
      <trkpt lat="48.69549" lon="1.76273">
        <ele>183.60000610352</ele>
        <time>2014-05-29T14:24:32.000Z</time>
      </trkpt>
      <trkpt lat="48.69552" lon="1.76278">
        <ele>183.60000610352</ele>
        <time>2014-05-29T14:24:35.000Z</time>
      </trkpt>
      <trkpt lat="48.69556" lon="1.76289">
        <ele>183.39999389648</ele>
        <time>2014-05-29T14:24:42.000Z</time>
      </trkpt>
      <trkpt lat="48.69562" lon="1.76297">
        <ele>183.19999694824</ele>
        <time>2014-05-29T14:24:48.000Z</time>
      </trkpt>
      <trkpt lat="48.69567" lon="1.76304">
        <ele>183.19999694824</ele>
        <time>2014-05-29T14:24:52.000Z</time>
      </trkpt>
      <trkpt lat="48.69575" lon="1.76312">
        <ele>183.19999694824</ele>
        <time>2014-05-29T14:24:58.000Z</time>
      </trkpt>
      <trkpt lat="48.69582" lon="1.7632">
        <ele>183</ele>
        <time>2014-05-29T14:25:03.000Z</time>
      </trkpt>
      <trkpt lat="48.69583" lon="1.76321">
        <ele>183</ele>
        <time>2014-05-29T14:25:10.000Z</time>
      </trkpt>
      <trkpt lat="48.69586" lon="1.76327">
        <ele>183</ele>
        <time>2014-05-29T14:25:16.000Z</time>
      </trkpt>
      <trkpt lat="48.69587" lon="1.7633">
        <ele>182.80000305176</ele>
        <time>2014-05-29T14:25:18.000Z</time>
      </trkpt>
      <trkpt lat="48.6959" lon="1.7634">
        <ele>182.80000305176</ele>
        <time>2014-05-29T14:25:23.000Z</time>
      </trkpt>
      <trkpt lat="48.69596" lon="1.7635">
        <ele>182.60000610352</ele>
        <time>2014-05-29T14:25:28.000Z</time>
      </trkpt>
      <trkpt lat="48.69602" lon="1.7636">
        <ele>182.60000610352</ele>
        <time>2014-05-29T14:25:34.000Z</time>
      </trkpt>
      <trkpt lat="48.6961" lon="1.76368">
        <ele>182.39999389648</ele>
        <time>2014-05-29T14:25:40.000Z</time>
      </trkpt>
      <trkpt lat="48.6962" lon="1.76383">
        <ele>182.19999694824</ele>
        <time>2014-05-29T14:25:47.000Z</time>
      </trkpt>
      <trkpt lat="48.69623" lon="1.7639">
        <ele>182.19999694824</ele>
        <time>2014-05-29T14:25:53.000Z</time>
      </trkpt>
      <trkpt lat="48.69626" lon="1.76399">
        <ele>182</ele>
        <time>2014-05-29T14:25:59.000Z</time>
      </trkpt>
      <trkpt lat="48.69631" lon="1.76404">
        <ele>182</ele>
        <time>2014-05-29T14:26:03.000Z</time>
      </trkpt>
      <trkpt lat="48.69632" lon="1.76406">
        <ele>182</ele>
        <time>2014-05-29T14:26:05.000Z</time>
      </trkpt>
      <trkpt lat="48.69635" lon="1.76411">
        <ele>182</ele>
        <time>2014-05-29T14:26:10.000Z</time>
      </trkpt>
      <trkpt lat="48.69636" lon="1.76414">
        <ele>182</ele>
        <time>2014-05-29T14:26:16.000Z</time>
      </trkpt>
      <trkpt lat="48.69641" lon="1.76426">
        <ele>182</ele>
        <time>2014-05-29T14:26:29.000Z</time>
      </trkpt>
      <trkpt lat="48.69645" lon="1.76431">
        <ele>182</ele>
        <time>2014-05-29T14:26:32.000Z</time>
      </trkpt>
      <trkpt lat="48.69648" lon="1.76437">
        <ele>182</ele>
        <time>2014-05-29T14:26:36.000Z</time>
      </trkpt>
      <trkpt lat="48.69654" lon="1.76448">
        <ele>182</ele>
        <time>2014-05-29T14:26:44.000Z</time>
      </trkpt>
      <trkpt lat="48.69665" lon="1.7646">
        <ele>182</ele>
        <time>2014-05-29T14:26:51.000Z</time>
      </trkpt>
      <trkpt lat="48.6967" lon="1.76469">
        <ele>182</ele>
        <time>2014-05-29T14:26:56.000Z</time>
      </trkpt>
      <trkpt lat="48.69679" lon="1.76482">
        <ele>181.80000305176</ele>
        <time>2014-05-29T14:27:05.000Z</time>
      </trkpt>
      <trkpt lat="48.69683" lon="1.76494">
        <ele>181.60000610352</ele>
        <time>2014-05-29T14:27:12.000Z</time>
      </trkpt>
      <trkpt lat="48.69685" lon="1.76499">
        <ele>181.60000610352</ele>
        <time>2014-05-29T14:27:15.000Z</time>
      </trkpt>
      <trkpt lat="48.69691" lon="1.76514">
        <ele>181.39999389648</ele>
        <time>2014-05-29T14:27:23.000Z</time>
      </trkpt>
      <trkpt lat="48.69699" lon="1.7653">
        <ele>181.19999694824</ele>
        <time>2014-05-29T14:27:31.000Z</time>
      </trkpt>
      <trkpt lat="48.697" lon="1.76532">
        <ele>181.19999694824</ele>
        <time>2014-05-29T14:27:33.000Z</time>
      </trkpt>
      <trkpt lat="48.69701" lon="1.76535">
        <ele>181.19999694824</ele>
        <time>2014-05-29T14:27:35.000Z</time>
      </trkpt>
      <trkpt lat="48.69708" lon="1.76545">
        <ele>181.19999694824</ele>
        <time>2014-05-29T14:27:43.000Z</time>
      </trkpt>
      <trkpt lat="48.69714" lon="1.76553">
        <ele>181.39999389648</ele>
        <time>2014-05-29T14:27:49.000Z</time>
      </trkpt>
      <trkpt lat="48.69718" lon="1.76562">
        <ele>181.19999694824</ele>
        <time>2014-05-29T14:27:54.000Z</time>
      </trkpt>
      <trkpt lat="48.69725" lon="1.76575">
        <ele>181.19999694824</ele>
        <time>2014-05-29T14:28:02.000Z</time>
      </trkpt>
      <trkpt lat="48.69728" lon="1.76578">
        <ele>181.39999389648</ele>
        <time>2014-05-29T14:28:04.000Z</time>
      </trkpt>
      <trkpt lat="48.69733" lon="1.76585">
        <ele>181.80000305176</ele>
        <time>2014-05-29T14:28:09.000Z</time>
      </trkpt>
      <trkpt lat="48.6974" lon="1.76592">
        <ele>182.19999694824</ele>
        <time>2014-05-29T14:28:16.000Z</time>
      </trkpt>
      <trkpt lat="48.69742" lon="1.76599">
        <ele>182.39999389648</ele>
        <time>2014-05-29T14:28:22.000Z</time>
      </trkpt>
      <trkpt lat="48.69742" lon="1.76599">
        <ele>182.39999389648</ele>
        <time>2014-05-29T14:28:24.000Z</time>
      </trkpt>
      <trkpt lat="48.69746" lon="1.76605">
        <ele>182.60000610352</ele>
        <time>2014-05-29T14:28:31.000Z</time>
      </trkpt>
      <trkpt lat="48.69751" lon="1.76618">
        <ele>182.80000305176</ele>
        <time>2014-05-29T14:28:38.000Z</time>
      </trkpt>
      <trkpt lat="48.69756" lon="1.76623">
        <ele>183.19999694824</ele>
        <time>2014-05-29T14:28:42.000Z</time>
      </trkpt>
      <trkpt lat="48.69761" lon="1.76629">
        <ele>183.39999389648</ele>
        <time>2014-05-29T14:28:47.000Z</time>
      </trkpt>
      <trkpt lat="48.69766" lon="1.76635">
        <ele>183.80000305176</ele>
        <time>2014-05-29T14:28:52.000Z</time>
      </trkpt>
      <trkpt lat="48.69775" lon="1.76639">
        <ele>184</ele>
        <time>2014-05-29T14:28:58.000Z</time>
      </trkpt>
      <trkpt lat="48.69783" lon="1.7665">
        <ele>184</ele>
        <time>2014-05-29T14:29:06.000Z</time>
      </trkpt>
      <trkpt lat="48.69795" lon="1.76663">
        <ele>184.19999694824</ele>
        <time>2014-05-29T14:29:16.000Z</time>
      </trkpt>
      <trkpt lat="48.69802" lon="1.76669">
        <ele>184.39999389648</ele>
        <time>2014-05-29T14:29:22.000Z</time>
      </trkpt>
      <trkpt lat="48.69803" lon="1.76669">
        <ele>184.39999389648</ele>
        <time>2014-05-29T14:29:23.000Z</time>
      </trkpt>
      <trkpt lat="48.69808" lon="1.76674">
        <ele>184.39999389648</ele>
        <time>2014-05-29T14:29:30.000Z</time>
      </trkpt>
      <trkpt lat="48.69813" lon="1.7668">
        <ele>184.60000610352</ele>
        <time>2014-05-29T14:29:35.000Z</time>
      </trkpt>
      <trkpt lat="48.69815" lon="1.76683">
        <ele>184.60000610352</ele>
        <time>2014-05-29T14:29:37.000Z</time>
      </trkpt>
      <trkpt lat="48.69823" lon="1.76691">
        <ele>184.80000305176</ele>
        <time>2014-05-29T14:29:44.000Z</time>
      </trkpt>
      <trkpt lat="48.69826" lon="1.76696">
        <ele>185</ele>
        <time>2014-05-29T14:29:50.000Z</time>
      </trkpt>
      <trkpt lat="48.69827" lon="1.76697">
        <ele>185</ele>
        <time>2014-05-29T14:29:53.000Z</time>
      </trkpt>
      <trkpt lat="48.69836" lon="1.76712">
        <ele>185.39999389648</ele>
        <time>2014-05-29T14:30:09.000Z</time>
      </trkpt>
      <trkpt lat="48.69843" lon="1.76721">
        <ele>185.60000610352</ele>
        <time>2014-05-29T14:30:15.000Z</time>
      </trkpt>
      <trkpt lat="48.69849" lon="1.76728">
        <ele>185.80000305176</ele>
        <time>2014-05-29T14:30:21.000Z</time>
      </trkpt>
      <trkpt lat="48.69856" lon="1.76736">
        <ele>185.80000305176</ele>
        <time>2014-05-29T14:30:27.000Z</time>
      </trkpt>
      <trkpt lat="48.69864" lon="1.76745">
        <ele>185.39999389648</ele>
        <time>2014-05-29T14:30:34.000Z</time>
      </trkpt>
      <trkpt lat="48.69874" lon="1.76753">
        <ele>185</ele>
        <time>2014-05-29T14:30:41.000Z</time>
      </trkpt>
      <trkpt lat="48.69884" lon="1.76765">
        <ele>184.19999694824</ele>
        <time>2014-05-29T14:30:50.000Z</time>
      </trkpt>
      <trkpt lat="48.69891" lon="1.76773">
        <ele>183.80000305176</ele>
        <time>2014-05-29T14:30:56.000Z</time>
      </trkpt>
      <trkpt lat="48.69898" lon="1.76782">
        <ele>183.39999389648</ele>
        <time>2014-05-29T14:31:03.000Z</time>
      </trkpt>
      <trkpt lat="48.69908" lon="1.76794">
        <ele>182.60000610352</ele>
        <time>2014-05-29T14:31:11.000Z</time>
      </trkpt>
      <trkpt lat="48.69914" lon="1.76801">
        <ele>182.19999694824</ele>
        <time>2014-05-29T14:31:17.000Z</time>
      </trkpt>
      <trkpt lat="48.69918" lon="1.76806">
        <ele>182</ele>
        <time>2014-05-29T14:31:21.000Z</time>
      </trkpt>
      <trkpt lat="48.69921" lon="1.76809">
        <ele>181.80000305176</ele>
        <time>2014-05-29T14:31:24.000Z</time>
      </trkpt>
      <trkpt lat="48.69931" lon="1.76817">
        <ele>181.19999694824</ele>
        <time>2014-05-29T14:31:32.000Z</time>
      </trkpt>
      <trkpt lat="48.69939" lon="1.76826">
        <ele>181</ele>
        <time>2014-05-29T14:31:40.000Z</time>
      </trkpt>
      <trkpt lat="48.69947" lon="1.76835">
        <ele>181</ele>
        <time>2014-05-29T14:31:48.000Z</time>
      </trkpt>
      <trkpt lat="48.69956" lon="1.76846">
        <ele>181</ele>
        <time>2014-05-29T14:31:56.000Z</time>
      </trkpt>
      <trkpt lat="48.69961" lon="1.7685">
        <ele>181</ele>
        <time>2014-05-29T14:32:01.000Z</time>
      </trkpt>
      <trkpt lat="48.69968" lon="1.76858">
        <ele>181.19999694824</ele>
        <time>2014-05-29T14:32:08.000Z</time>
      </trkpt>
      <trkpt lat="48.69969" lon="1.76859">
        <ele>181.19999694824</ele>
        <time>2014-05-29T14:32:09.000Z</time>
      </trkpt>
      <trkpt lat="48.69981" lon="1.76869">
        <ele>181.39999389648</ele>
        <time>2014-05-29T14:32:17.000Z</time>
      </trkpt>
      <trkpt lat="48.6999" lon="1.76878">
        <ele>181.39999389648</ele>
        <time>2014-05-29T14:32:26.000Z</time>
      </trkpt>
      <trkpt lat="48.69994" lon="1.76882">
        <ele>181.39999389648</ele>
        <time>2014-05-29T14:32:32.000Z</time>
      </trkpt>
      <trkpt lat="48.70003" lon="1.76893">
        <ele>181.60000610352</ele>
        <time>2014-05-29T14:32:40.000Z</time>
      </trkpt>
      <trkpt lat="48.70009" lon="1.76901">
        <ele>181.60000610352</ele>
        <time>2014-05-29T14:32:46.000Z</time>
      </trkpt>
      <trkpt lat="48.70018" lon="1.76912">
        <ele>181.80000305176</ele>
        <time>2014-05-29T14:32:54.000Z</time>
      </trkpt>
      <trkpt lat="48.70021" lon="1.76915">
        <ele>181.80000305176</ele>
        <time>2014-05-29T14:32:57.000Z</time>
      </trkpt>
      <trkpt lat="48.70023" lon="1.76918">
        <ele>181.60000610352</ele>
        <time>2014-05-29T14:33:03.000Z</time>
      </trkpt>
      <trkpt lat="48.70029" lon="1.76907">
        <ele>182.19999694824</ele>
        <time>2014-05-29T14:33:15.000Z</time>
      </trkpt>
      <trkpt lat="48.70031" lon="1.76898">
        <ele>182.60000610352</ele>
        <time>2014-05-29T14:33:18.000Z</time>
      </trkpt>
      <trkpt lat="48.70037" lon="1.76889">
        <ele>183</ele>
        <time>2014-05-29T14:33:25.000Z</time>
      </trkpt>
      <trkpt lat="48.70041" lon="1.76878">
        <ele>183.39999389648</ele>
        <time>2014-05-29T14:33:30.000Z</time>
      </trkpt>
      <trkpt lat="48.70042" lon="1.76864">
        <ele>183.80000305176</ele>
        <time>2014-05-29T14:33:38.000Z</time>
      </trkpt>
      <trkpt lat="48.70042" lon="1.7686">
        <ele>183.80000305176</ele>
        <time>2014-05-29T14:33:40.000Z</time>
      </trkpt>
      <trkpt lat="48.70045" lon="1.76856">
        <ele>184</ele>
        <time>2014-05-29T14:33:43.000Z</time>
      </trkpt>
      <trkpt lat="48.70048" lon="1.76848">
        <ele>184.39999389648</ele>
        <time>2014-05-29T14:33:48.000Z</time>
      </trkpt>
      <trkpt lat="48.7005" lon="1.76845">
        <ele>184.39999389648</ele>
        <time>2014-05-29T14:33:50.000Z</time>
      </trkpt>
      <trkpt lat="48.70052" lon="1.76839">
        <ele>184.39999389648</ele>
        <time>2014-05-29T14:33:53.000Z</time>
      </trkpt>
      <trkpt lat="48.70052" lon="1.76827">
        <ele>184.39999389648</ele>
        <time>2014-05-29T14:33:59.000Z</time>
      </trkpt>
      <trkpt lat="48.70054" lon="1.76813">
        <ele>184.60000610352</ele>
        <time>2014-05-29T14:34:05.000Z</time>
      </trkpt>
      <trkpt lat="48.70051" lon="1.76801">
        <ele>184.80000305176</ele>
        <time>2014-05-29T14:34:11.000Z</time>
      </trkpt>
      <trkpt lat="48.70052" lon="1.76793">
        <ele>185</ele>
        <time>2014-05-29T14:34:15.000Z</time>
      </trkpt>
      <trkpt lat="48.70057" lon="1.76788">
        <ele>185.19999694824</ele>
        <time>2014-05-29T14:34:21.000Z</time>
      </trkpt>
      <trkpt lat="48.70062" lon="1.76787">
        <ele>185.39999389648</ele>
        <time>2014-05-29T14:34:26.000Z</time>
      </trkpt>
      <trkpt lat="48.70064" lon="1.76787">
        <ele>185.39999389648</ele>
        <time>2014-05-29T14:34:29.000Z</time>
      </trkpt>
      <trkpt lat="48.70076" lon="1.76785">
        <ele>185.39999389648</ele>
        <time>2014-05-29T14:34:37.000Z</time>
      </trkpt>
      <trkpt lat="48.70084" lon="1.76784">
        <ele>185.39999389648</ele>
        <time>2014-05-29T14:34:44.000Z</time>
      </trkpt>
      <trkpt lat="48.70097" lon="1.76784">
        <ele>185.39999389648</ele>
        <time>2014-05-29T14:34:52.000Z</time>
      </trkpt>
      <trkpt lat="48.70101" lon="1.76783">
        <ele>185.39999389648</ele>
        <time>2014-05-29T14:34:56.000Z</time>
      </trkpt>
      <trkpt lat="48.70106" lon="1.76783">
        <ele>185.39999389648</ele>
        <time>2014-05-29T14:35:00.000Z</time>
      </trkpt>
      <trkpt lat="48.70107" lon="1.76782">
        <ele>185.19999694824</ele>
        <time>2014-05-29T14:35:03.000Z</time>
      </trkpt>
      <trkpt lat="48.70113" lon="1.76781">
        <ele>185</ele>
        <time>2014-05-29T14:35:10.000Z</time>
      </trkpt>
      <trkpt lat="48.70118" lon="1.76779">
        <ele>184.60000610352</ele>
        <time>2014-05-29T14:35:14.000Z</time>
      </trkpt>
      <trkpt lat="48.7012" lon="1.76777">
        <ele>184.60000610352</ele>
        <time>2014-05-29T14:35:16.000Z</time>
      </trkpt>
      <trkpt lat="48.70129" lon="1.76779">
        <ele>184</ele>
        <time>2014-05-29T14:35:23.000Z</time>
      </trkpt>
      <trkpt lat="48.70137" lon="1.76778">
        <ele>183.39999389648</ele>
        <time>2014-05-29T14:35:29.000Z</time>
      </trkpt>
      <trkpt lat="48.70144" lon="1.76776">
        <ele>183.19999694824</ele>
        <time>2014-05-29T14:35:35.000Z</time>
      </trkpt>
      <trkpt lat="48.70154" lon="1.76774">
        <ele>182.80000305176</ele>
        <time>2014-05-29T14:35:41.000Z</time>
      </trkpt>
      <trkpt lat="48.70161" lon="1.76769">
        <ele>182.60000610352</ele>
        <time>2014-05-29T14:35:46.000Z</time>
      </trkpt>
      <trkpt lat="48.70166" lon="1.76762">
        <ele>182.39999389648</ele>
        <time>2014-05-29T14:35:52.000Z</time>
      </trkpt>
      <trkpt lat="48.70171" lon="1.76757">
        <ele>182.19999694824</ele>
        <time>2014-05-29T14:35:56.000Z</time>
      </trkpt>
      <trkpt lat="48.7018" lon="1.76748">
        <ele>182</ele>
        <time>2014-05-29T14:36:05.000Z</time>
      </trkpt>
      <trkpt lat="48.70182" lon="1.76748">
        <ele>182</ele>
        <time>2014-05-29T14:36:07.000Z</time>
      </trkpt>
      <trkpt lat="48.70188" lon="1.76743">
        <ele>181.80000305176</ele>
        <time>2014-05-29T14:36:14.000Z</time>
      </trkpt>
      <trkpt lat="48.7019" lon="1.7674">
        <ele>181.80000305176</ele>
        <time>2014-05-29T14:36:16.000Z</time>
      </trkpt>
      <trkpt lat="48.70195" lon="1.76732">
        <ele>182</ele>
        <time>2014-05-29T14:36:20.000Z</time>
      </trkpt>
      <trkpt lat="48.70204" lon="1.76721">
        <ele>182</ele>
        <time>2014-05-29T14:36:28.000Z</time>
      </trkpt>
      <trkpt lat="48.70209" lon="1.76715">
        <ele>182</ele>
        <time>2014-05-29T14:36:34.000Z</time>
      </trkpt>
      <trkpt lat="48.70217" lon="1.76708">
        <ele>182</ele>
        <time>2014-05-29T14:36:41.000Z</time>
      </trkpt>
      <trkpt lat="48.70226" lon="1.76702">
        <ele>182</ele>
        <time>2014-05-29T14:36:47.000Z</time>
      </trkpt>
      <trkpt lat="48.70233" lon="1.76695">
        <ele>181.80000305176</ele>
        <time>2014-05-29T14:36:53.000Z</time>
      </trkpt>
      <trkpt lat="48.70242" lon="1.76692">
        <ele>181.39999389648</ele>
        <time>2014-05-29T14:37:00.000Z</time>
      </trkpt>
      <trkpt lat="48.70248" lon="1.76687">
        <ele>181</ele>
        <time>2014-05-29T14:37:06.000Z</time>
      </trkpt>
      <trkpt lat="48.70259" lon="1.76684">
        <ele>180.60000610352</ele>
        <time>2014-05-29T14:37:13.000Z</time>
      </trkpt>
      <trkpt lat="48.70261" lon="1.76682">
        <ele>180.39999389648</ele>
        <time>2014-05-29T14:37:15.000Z</time>
      </trkpt>
      <trkpt lat="48.7027" lon="1.76676">
        <ele>180</ele>
        <time>2014-05-29T14:37:23.000Z</time>
      </trkpt>
      <trkpt lat="48.70272" lon="1.76675">
        <ele>180</ele>
        <time>2014-05-29T14:37:24.000Z</time>
      </trkpt>
      <trkpt lat="48.70278" lon="1.76672">
        <ele>179.80000305176</ele>
        <time>2014-05-29T14:37:32.000Z</time>
      </trkpt>
      <trkpt lat="48.70288" lon="1.7667">
        <ele>179.60000610352</ele>
        <time>2014-05-29T14:37:47.000Z</time>
      </trkpt>
      <trkpt lat="48.70296" lon="1.76667">
        <ele>179.39999389648</ele>
        <time>2014-05-29T14:37:52.000Z</time>
      </trkpt>
      <trkpt lat="48.70308" lon="1.76657">
        <ele>179</ele>
        <time>2014-05-29T14:38:01.000Z</time>
      </trkpt>
      <trkpt lat="48.70312" lon="1.76656">
        <ele>179</ele>
        <time>2014-05-29T14:38:06.000Z</time>
      </trkpt>
      <trkpt lat="48.70316" lon="1.76653">
        <ele>178.80000305176</ele>
        <time>2014-05-29T14:38:11.000Z</time>
      </trkpt>
      <trkpt lat="48.70324" lon="1.76649">
        <ele>178.80000305176</ele>
        <time>2014-05-29T14:38:17.000Z</time>
      </trkpt>
      <trkpt lat="48.70328" lon="1.7664">
        <ele>178.60000610352</ele>
        <time>2014-05-29T14:38:23.000Z</time>
      </trkpt>
      <trkpt lat="48.7033" lon="1.76636">
        <ele>178.60000610352</ele>
        <time>2014-05-29T14:38:25.000Z</time>
      </trkpt>
      <trkpt lat="48.70334" lon="1.76633">
        <ele>178.39999389648</ele>
        <time>2014-05-29T14:38:28.000Z</time>
      </trkpt>
      <trkpt lat="48.70344" lon="1.76628">
        <ele>178.19999694824</ele>
        <time>2014-05-29T14:38:35.000Z</time>
      </trkpt>
      <trkpt lat="48.7035" lon="1.76621">
        <ele>178</ele>
        <time>2014-05-29T14:38:40.000Z</time>
      </trkpt>
      <trkpt lat="48.70359" lon="1.76619">
        <ele>178.19999694824</ele>
        <time>2014-05-29T14:38:47.000Z</time>
      </trkpt>
      <trkpt lat="48.70361" lon="1.76617">
        <ele>178.19999694824</ele>
        <time>2014-05-29T14:38:51.000Z</time>
      </trkpt>
      <trkpt lat="48.70363" lon="1.76616">
        <ele>178.19999694824</ele>
        <time>2014-05-29T14:38:52.000Z</time>
      </trkpt>
      <trkpt lat="48.70368" lon="1.76613">
        <ele>178.39999389648</ele>
        <time>2014-05-29T14:38:56.000Z</time>
      </trkpt>
      <trkpt lat="48.70376" lon="1.76608">
        <ele>178.60000610352</ele>
        <time>2014-05-29T14:39:01.000Z</time>
      </trkpt>
      <trkpt lat="48.70387" lon="1.76602">
        <ele>178.80000305176</ele>
        <time>2014-05-29T14:39:08.000Z</time>
      </trkpt>
      <trkpt lat="48.70394" lon="1.76598">
        <ele>179.19999694824</ele>
        <time>2014-05-29T14:39:14.000Z</time>
      </trkpt>
      <trkpt lat="48.70395" lon="1.76597">
        <ele>179.19999694824</ele>
        <time>2014-05-29T14:39:16.000Z</time>
      </trkpt>
      <trkpt lat="48.704" lon="1.76593">
        <ele>179.39999389648</ele>
        <time>2014-05-29T14:39:23.000Z</time>
      </trkpt>
      <trkpt lat="48.70406" lon="1.7659">
        <ele>179.60000610352</ele>
        <time>2014-05-29T14:39:27.000Z</time>
      </trkpt>
      <trkpt lat="48.70415" lon="1.76585">
        <ele>180</ele>
        <time>2014-05-29T14:39:33.000Z</time>
      </trkpt>
      <trkpt lat="48.70422" lon="1.76581">
        <ele>180.39999389648</ele>
        <time>2014-05-29T14:39:41.000Z</time>
      </trkpt>
      <trkpt lat="48.70434" lon="1.76577">
        <ele>180.80000305176</ele>
        <time>2014-05-29T14:39:57.000Z</time>
      </trkpt>
      <trkpt lat="48.70437" lon="1.76571">
        <ele>181</ele>
        <time>2014-05-29T14:40:00.000Z</time>
      </trkpt>
      <trkpt lat="48.70438" lon="1.76566">
        <ele>181</ele>
        <time>2014-05-29T14:40:04.000Z</time>
      </trkpt>
      <trkpt lat="48.70441" lon="1.76558">
        <ele>181</ele>
        <time>2014-05-29T14:40:09.000Z</time>
      </trkpt>
      <trkpt lat="48.70442" lon="1.76553">
        <ele>181</ele>
        <time>2014-05-29T14:40:12.000Z</time>
      </trkpt>
      <trkpt lat="48.70444" lon="1.76546">
        <ele>181</ele>
        <time>2014-05-29T14:40:16.000Z</time>
      </trkpt>
      <trkpt lat="48.70448" lon="1.7653">
        <ele>181</ele>
        <time>2014-05-29T14:40:23.000Z</time>
      </trkpt>
      <trkpt lat="48.7045" lon="1.7652">
        <ele>181</ele>
        <time>2014-05-29T14:40:28.000Z</time>
      </trkpt>
      <trkpt lat="48.70452" lon="1.76504">
        <ele>181</ele>
        <time>2014-05-29T14:40:36.000Z</time>
      </trkpt>
      <trkpt lat="48.70453" lon="1.76501">
        <ele>181</ele>
        <time>2014-05-29T14:40:38.000Z</time>
      </trkpt>
      <trkpt lat="48.70453" lon="1.76496">
        <ele>181</ele>
        <time>2014-05-29T14:40:40.000Z</time>
      </trkpt>
      <trkpt lat="48.70455" lon="1.76482">
        <ele>180.39999389648</ele>
        <time>2014-05-29T14:40:48.000Z</time>
      </trkpt>
      <trkpt lat="48.70457" lon="1.76472">
        <ele>179.80000305176</ele>
        <time>2014-05-29T14:40:53.000Z</time>
      </trkpt>
      <trkpt lat="48.7046" lon="1.76454">
        <ele>178.80000305176</ele>
        <time>2014-05-29T14:41:01.000Z</time>
      </trkpt>
      <trkpt lat="48.7046" lon="1.76451">
        <ele>178.60000610352</ele>
        <time>2014-05-29T14:41:03.000Z</time>
      </trkpt>
      <trkpt lat="48.70459" lon="1.7644">
        <ele>178.19999694824</ele>
        <time>2014-05-29T14:41:09.000Z</time>
      </trkpt>
      <trkpt lat="48.70459" lon="1.76437">
        <ele>178</ele>
        <time>2014-05-29T14:41:10.000Z</time>
      </trkpt>
      <trkpt lat="48.7046" lon="1.76433">
        <ele>177.80000305176</ele>
        <time>2014-05-29T14:41:12.000Z</time>
      </trkpt>
      <trkpt lat="48.70461" lon="1.76425">
        <ele>177.39999389648</ele>
        <time>2014-05-29T14:41:19.000Z</time>
      </trkpt>
      <trkpt lat="48.70461" lon="1.76423">
        <ele>177.39999389648</ele>
        <time>2014-05-29T14:41:20.000Z</time>
      </trkpt>
      <trkpt lat="48.70459" lon="1.76412">
        <ele>177.19999694824</ele>
        <time>2014-05-29T14:41:26.000Z</time>
      </trkpt>
      <trkpt lat="48.70457" lon="1.76402">
        <ele>177.19999694824</ele>
        <time>2014-05-29T14:41:32.000Z</time>
      </trkpt>
      <trkpt lat="48.70456" lon="1.76394">
        <ele>176.80000305176</ele>
        <time>2014-05-29T14:41:37.000Z</time>
      </trkpt>
      <trkpt lat="48.70453" lon="1.76378">
        <ele>176.19999694824</ele>
        <time>2014-05-29T14:41:45.000Z</time>
      </trkpt>
      <trkpt lat="48.70452" lon="1.76373">
        <ele>176</ele>
        <time>2014-05-29T14:41:47.000Z</time>
      </trkpt>
      <trkpt lat="48.70453" lon="1.76356">
        <ele>175</ele>
        <time>2014-05-29T14:41:57.000Z</time>
      </trkpt>
      <trkpt lat="48.70453" lon="1.76354">
        <ele>175</ele>
        <time>2014-05-29T14:41:58.000Z</time>
      </trkpt>
      <trkpt lat="48.70452" lon="1.76347">
        <ele>174.80000305176</ele>
        <time>2014-05-29T14:42:01.000Z</time>
      </trkpt>
      <trkpt lat="48.70452" lon="1.76334">
        <ele>174</ele>
        <time>2014-05-29T14:42:06.000Z</time>
      </trkpt>
      <trkpt lat="48.70448" lon="1.76322">
        <ele>173.60000610352</ele>
        <time>2014-05-29T14:42:12.000Z</time>
      </trkpt>
      <trkpt lat="48.70448" lon="1.7631">
        <ele>173.60000610352</ele>
        <time>2014-05-29T14:42:18.000Z</time>
      </trkpt>
      <trkpt lat="48.70447" lon="1.763">
        <ele>173.60000610352</ele>
        <time>2014-05-29T14:42:23.000Z</time>
      </trkpt>
      <trkpt lat="48.70448" lon="1.76291">
        <ele>173.60000610352</ele>
        <time>2014-05-29T14:42:29.000Z</time>
      </trkpt>
      <trkpt lat="48.7045" lon="1.76281">
        <ele>173.60000610352</ele>
        <time>2014-05-29T14:42:34.000Z</time>
      </trkpt>
      <trkpt lat="48.70453" lon="1.76269">
        <ele>173.39999389648</ele>
        <time>2014-05-29T14:42:41.000Z</time>
      </trkpt>
      <trkpt lat="48.70456" lon="1.76258">
        <ele>173.39999389648</ele>
        <time>2014-05-29T14:42:46.000Z</time>
      </trkpt>
      <trkpt lat="48.70459" lon="1.7624">
        <ele>172.80000305176</ele>
        <time>2014-05-29T14:42:54.000Z</time>
      </trkpt>
      <trkpt lat="48.70461" lon="1.76232">
        <ele>172.80000305176</ele>
        <time>2014-05-29T14:43:01.000Z</time>
      </trkpt>
      <trkpt lat="48.7046" lon="1.76222">
        <ele>173</ele>
        <time>2014-05-29T14:43:09.000Z</time>
      </trkpt>
      <trkpt lat="48.7046" lon="1.76218">
        <ele>173.19999694824</ele>
        <time>2014-05-29T14:43:11.000Z</time>
      </trkpt>
      <trkpt lat="48.70459" lon="1.76213">
        <ele>173.19999694824</ele>
        <time>2014-05-29T14:43:13.000Z</time>
      </trkpt>
      <trkpt lat="48.70459" lon="1.762">
        <ele>173.60000610352</ele>
        <time>2014-05-29T14:43:18.000Z</time>
      </trkpt>
      <trkpt lat="48.70459" lon="1.76194">
        <ele>173.60000610352</ele>
        <time>2014-05-29T14:43:21.000Z</time>
      </trkpt>
      <trkpt lat="48.70455" lon="1.76181">
        <ele>174.39999389648</ele>
        <time>2014-05-29T14:43:28.000Z</time>
      </trkpt>
      <trkpt lat="48.70454" lon="1.76179">
        <ele>174.39999389648</ele>
        <time>2014-05-29T14:43:29.000Z</time>
      </trkpt>
      <trkpt lat="48.70454" lon="1.76169">
        <ele>174.60000610352</ele>
        <time>2014-05-29T14:43:35.000Z</time>
      </trkpt>
      <trkpt lat="48.70452" lon="1.76163">
        <ele>175</ele>
        <time>2014-05-29T14:43:39.000Z</time>
      </trkpt>
      <trkpt lat="48.70452" lon="1.7615">
        <ele>175.39999389648</ele>
        <time>2014-05-29T14:43:45.000Z</time>
      </trkpt>
      <trkpt lat="48.70455" lon="1.76137">
        <ele>175.39999389648</ele>
        <time>2014-05-29T14:43:53.000Z</time>
      </trkpt>
      <trkpt lat="48.70459" lon="1.76119">
        <ele>175.39999389648</ele>
        <time>2014-05-29T14:44:01.000Z</time>
      </trkpt>
      <trkpt lat="48.70461" lon="1.76107">
        <ele>175.39999389648</ele>
        <time>2014-05-29T14:44:09.000Z</time>
      </trkpt>
      <trkpt lat="48.70463" lon="1.76096">
        <ele>175.39999389648</ele>
        <time>2014-05-29T14:44:16.000Z</time>
      </trkpt>
      <trkpt lat="48.70464" lon="1.76087">
        <ele>175.39999389648</ele>
        <time>2014-05-29T14:44:21.000Z</time>
      </trkpt>
      <trkpt lat="48.70467" lon="1.76075">
        <ele>175.39999389648</ele>
        <time>2014-05-29T14:44:26.000Z</time>
      </trkpt>
      <trkpt lat="48.70469" lon="1.76062">
        <ele>175.80000305176</ele>
        <time>2014-05-29T14:44:32.000Z</time>
      </trkpt>
      <trkpt lat="48.7047" lon="1.76059">
        <ele>176</ele>
        <time>2014-05-29T14:44:33.000Z</time>
      </trkpt>
      <trkpt lat="48.70473" lon="1.76048">
        <ele>176.39999389648</ele>
        <time>2014-05-29T14:44:39.000Z</time>
      </trkpt>
      <trkpt lat="48.70474" lon="1.7604">
        <ele>176.80000305176</ele>
        <time>2014-05-29T14:44:44.000Z</time>
      </trkpt>
      <trkpt lat="48.70478" lon="1.76028">
        <ele>177.19999694824</ele>
        <time>2014-05-29T14:44:50.000Z</time>
      </trkpt>
      <trkpt lat="48.70479" lon="1.76023">
        <ele>177.39999389648</ele>
        <time>2014-05-29T14:44:53.000Z</time>
      </trkpt>
      <trkpt lat="48.7048" lon="1.7601">
        <ele>178</ele>
        <time>2014-05-29T14:44:57.000Z</time>
      </trkpt>
      <trkpt lat="48.70483" lon="1.75999">
        <ele>178.60000610352</ele>
        <time>2014-05-29T14:45:02.000Z</time>
      </trkpt>
      <trkpt lat="48.70484" lon="1.75995">
        <ele>178.80000305176</ele>
        <time>2014-05-29T14:45:04.000Z</time>
      </trkpt>
      <trkpt lat="48.70488" lon="1.75985">
        <ele>179.19999694824</ele>
        <time>2014-05-29T14:45:10.000Z</time>
      </trkpt>
      <trkpt lat="48.70492" lon="1.75979">
        <ele>179.19999694824</ele>
        <time>2014-05-29T14:45:14.000Z</time>
      </trkpt>
      <trkpt lat="48.70493" lon="1.75977">
        <ele>179</ele>
        <time>2014-05-29T14:45:16.000Z</time>
      </trkpt>
      <trkpt lat="48.70496" lon="1.75973">
        <ele>179</ele>
        <time>2014-05-29T14:45:20.000Z</time>
      </trkpt>
      <trkpt lat="48.70501" lon="1.75965">
        <ele>179</ele>
        <time>2014-05-29T14:45:26.000Z</time>
      </trkpt>
      <trkpt lat="48.70505" lon="1.75961">
        <ele>179.39999389648</ele>
        <time>2014-05-29T14:45:29.000Z</time>
      </trkpt>
      <trkpt lat="48.70509" lon="1.75955">
        <ele>179.60000610352</ele>
        <time>2014-05-29T14:45:32.000Z</time>
      </trkpt>
      <trkpt lat="48.70514" lon="1.75947">
        <ele>180</ele>
        <time>2014-05-29T14:45:37.000Z</time>
      </trkpt>
      <trkpt lat="48.70516" lon="1.75945">
        <ele>180</ele>
        <time>2014-05-29T14:45:39.000Z</time>
      </trkpt>
      <trkpt lat="48.70519" lon="1.75938">
        <ele>180.39999389648</ele>
        <time>2014-05-29T14:45:46.000Z</time>
      </trkpt>
      <trkpt lat="48.7052" lon="1.75936">
        <ele>180.39999389648</ele>
        <time>2014-05-29T14:45:48.000Z</time>
      </trkpt>
      <trkpt lat="48.70526" lon="1.75924">
        <ele>180.60000610352</ele>
        <time>2014-05-29T14:45:55.000Z</time>
      </trkpt>
      <trkpt lat="48.7053" lon="1.75915">
        <ele>180.80000305176</ele>
        <time>2014-05-29T14:46:00.000Z</time>
      </trkpt>
      <trkpt lat="48.70536" lon="1.75911">
        <ele>180.60000610352</ele>
        <time>2014-05-29T14:46:05.000Z</time>
      </trkpt>
      <trkpt lat="48.7054" lon="1.75907">
        <ele>180.60000610352</ele>
        <time>2014-05-29T14:46:09.000Z</time>
      </trkpt>
      <trkpt lat="48.70541" lon="1.75901">
        <ele>180.60000610352</ele>
        <time>2014-05-29T14:46:12.000Z</time>
      </trkpt>
      <trkpt lat="48.70543" lon="1.75897">
        <ele>180.39999389648</ele>
        <time>2014-05-29T14:46:15.000Z</time>
      </trkpt>
      <trkpt lat="48.70546" lon="1.7589">
        <ele>180.39999389648</ele>
        <time>2014-05-29T14:46:19.000Z</time>
      </trkpt>
      <trkpt lat="48.70551" lon="1.75879">
        <ele>180.39999389648</ele>
        <time>2014-05-29T14:46:26.000Z</time>
      </trkpt>
      <trkpt lat="48.70557" lon="1.75869">
        <ele>180.19999694824</ele>
        <time>2014-05-29T14:46:33.000Z</time>
      </trkpt>
      <trkpt lat="48.70558" lon="1.75865">
        <ele>180.19999694824</ele>
        <time>2014-05-29T14:46:35.000Z</time>
      </trkpt>
      <trkpt lat="48.7056" lon="1.75857">
        <ele>180.19999694824</ele>
        <time>2014-05-29T14:46:39.000Z</time>
      </trkpt>
      <trkpt lat="48.70562" lon="1.75847">
        <ele>179.80000305176</ele>
        <time>2014-05-29T14:46:47.000Z</time>
      </trkpt>
      <trkpt lat="48.70564" lon="1.75839">
        <ele>179.39999389648</ele>
        <time>2014-05-29T14:46:52.000Z</time>
      </trkpt>
      <trkpt lat="48.70572" lon="1.75824">
        <ele>178.39999389648</ele>
        <time>2014-05-29T14:47:00.000Z</time>
      </trkpt>
      <trkpt lat="48.70573" lon="1.75822">
        <ele>178.19999694824</ele>
        <time>2014-05-29T14:47:01.000Z</time>
      </trkpt>
      <trkpt lat="48.70576" lon="1.75817">
        <ele>178</ele>
        <time>2014-05-29T14:47:07.000Z</time>
      </trkpt>
      <trkpt lat="48.70579" lon="1.75808">
        <ele>177.80000305176</ele>
        <time>2014-05-29T14:47:14.000Z</time>
      </trkpt>
      <trkpt lat="48.70581" lon="1.75803">
        <ele>177.60000610352</ele>
        <time>2014-05-29T14:47:17.000Z</time>
      </trkpt>
      <trkpt lat="48.70585" lon="1.75794">
        <ele>177.60000610352</ele>
        <time>2014-05-29T14:47:22.000Z</time>
      </trkpt>
      <trkpt lat="48.70592" lon="1.75781">
        <ele>177.80000305176</ele>
        <time>2014-05-29T14:47:30.000Z</time>
      </trkpt>
      <trkpt lat="48.70594" lon="1.75778">
        <ele>177.80000305176</ele>
        <time>2014-05-29T14:47:32.000Z</time>
      </trkpt>
      <trkpt lat="48.70598" lon="1.7577">
        <ele>177.80000305176</ele>
        <time>2014-05-29T14:47:37.000Z</time>
      </trkpt>
      <trkpt lat="48.70604" lon="1.7576">
        <ele>177.80000305176</ele>
        <time>2014-05-29T14:47:43.000Z</time>
      </trkpt>
      <trkpt lat="48.70606" lon="1.75758">
        <ele>178</ele>
        <time>2014-05-29T14:47:45.000Z</time>
      </trkpt>
      <trkpt lat="48.70612" lon="1.75747">
        <ele>178.19999694824</ele>
        <time>2014-05-29T14:47:52.000Z</time>
      </trkpt>
      <trkpt lat="48.70615" lon="1.75743">
        <ele>178.19999694824</ele>
        <time>2014-05-29T14:47:55.000Z</time>
      </trkpt>
      <trkpt lat="48.70618" lon="1.75736">
        <ele>178.19999694824</ele>
        <time>2014-05-29T14:48:00.000Z</time>
      </trkpt>
      <trkpt lat="48.70623" lon="1.75728">
        <ele>178.39999389648</ele>
        <time>2014-05-29T14:48:05.000Z</time>
      </trkpt>
      <trkpt lat="48.70628" lon="1.75715">
        <ele>179.19999694824</ele>
        <time>2014-05-29T14:48:13.000Z</time>
      </trkpt>
      <trkpt lat="48.7063" lon="1.75712">
        <ele>179.19999694824</ele>
        <time>2014-05-29T14:48:17.000Z</time>
      </trkpt>
      <trkpt lat="48.70643" lon="1.7569">
        <ele>179.80000305176</ele>
        <time>2014-05-29T14:49:39.000Z</time>
      </trkpt>
      <trkpt lat="48.70644" lon="1.75678">
        <ele>179.80000305176</ele>
        <time>2014-05-29T14:49:45.000Z</time>
      </trkpt>
      <trkpt lat="48.70644" lon="1.75666">
        <ele>180</ele>
        <time>2014-05-29T14:49:52.000Z</time>
      </trkpt>
      <trkpt lat="48.70641" lon="1.75654">
        <ele>180.39999389648</ele>
        <time>2014-05-29T14:49:59.000Z</time>
      </trkpt>
      <trkpt lat="48.70639" lon="1.75643">
        <ele>180.39999389648</ele>
        <time>2014-05-29T14:50:06.000Z</time>
      </trkpt>
      <trkpt lat="48.70644" lon="1.75625">
        <ele>179.39999389648</ele>
        <time>2014-05-29T14:50:15.000Z</time>
      </trkpt>
      <trkpt lat="48.70651" lon="1.75611">
        <ele>178.39999389648</ele>
        <time>2014-05-29T14:50:24.000Z</time>
      </trkpt>
      <trkpt lat="48.70654" lon="1.75602">
        <ele>178.19999694824</ele>
        <time>2014-05-29T14:50:29.000Z</time>
      </trkpt>
      <trkpt lat="48.70658" lon="1.75592">
        <ele>177.80000305176</ele>
        <time>2014-05-29T14:50:35.000Z</time>
      </trkpt>
      <trkpt lat="48.70661" lon="1.75587">
        <ele>177.60000610352</ele>
        <time>2014-05-29T14:50:38.000Z</time>
      </trkpt>
      <trkpt lat="48.70667" lon="1.75576">
        <ele>176.80000305176</ele>
        <time>2014-05-29T14:50:46.000Z</time>
      </trkpt>
      <trkpt lat="48.70671" lon="1.75565">
        <ele>175.80000305176</ele>
        <time>2014-05-29T14:50:52.000Z</time>
      </trkpt>
      <trkpt lat="48.70674" lon="1.75554">
        <ele>174.80000305176</ele>
        <time>2014-05-29T14:50:58.000Z</time>
      </trkpt>
      <trkpt lat="48.70676" lon="1.7555">
        <ele>174.60000610352</ele>
        <time>2014-05-29T14:51:03.000Z</time>
      </trkpt>
      <trkpt lat="48.70676" lon="1.7555">
        <ele>174.60000610352</ele>
        <time>2014-05-29T14:51:04.000Z</time>
      </trkpt>
      <trkpt lat="48.7068" lon="1.75539">
        <ele>174.39999389648</ele>
        <time>2014-05-29T14:51:41.000Z</time>
      </trkpt>
      <trkpt lat="48.70681" lon="1.75532">
        <ele>174.19999694824</ele>
        <time>2014-05-29T14:51:45.000Z</time>
      </trkpt>
      <trkpt lat="48.70682" lon="1.7553">
        <ele>174</ele>
        <time>2014-05-29T14:51:46.000Z</time>
      </trkpt>
      <trkpt lat="48.70685" lon="1.75526">
        <ele>174</ele>
        <time>2014-05-29T14:51:53.000Z</time>
      </trkpt>
      <trkpt lat="48.70695" lon="1.75501">
        <ele>173</ele>
        <time>2014-05-29T14:53:18.000Z</time>
      </trkpt>
      <trkpt lat="48.70697" lon="1.75492">
        <ele>172.80000305176</ele>
        <time>2014-05-29T14:53:23.000Z</time>
      </trkpt>
      <trkpt lat="48.70697" lon="1.75489">
        <ele>172.80000305176</ele>
        <time>2014-05-29T14:53:27.000Z</time>
      </trkpt>
    </trkseg>
  </trk>
</gpx>